Wetterdaten: Mittwoch, 08.06.2022
Datum Zeit Temp. Aussen Temp. o. S. Temp +5cm Feuchte Auss Luftdruck Regen Sonnenschein Regendauer Solar Windben Empfang
08.06.2022 00:00 16,6 C 15,6 C 12,2 C 93 % 1012,3 hPa 0,0 l/m 0 min 0 min 0 W/m 12,9 km/h (3 Bft) 95,74 %
08.06.2022 00:02 16,6 C 15,6 C 12,2 C 93 % 1012,2 hPa 0,0 l/m 0 min 0 min 0 W/m 6,4 km/h (2 Bft) 90,91 %
08.06.2022 00:04 16,5 C 15,6 C 12,2 C 93 % 1012,2 hPa 0,0 l/m 0 min 0 min 0 W/m 9,7 km/h (2 Bft) 95,74 %
08.06.2022 00:07 16,4 C 15,6 C 12,2 C 93 % 1012,2 hPa 0,0 l/m 0 min 0 min 0 W/m 12,9 km/h (3 Bft) 97,22 %
08.06.2022 00:08 16,4 C 15,6 C 12,2 C 93 % 1012,2 hPa 0,0 l/m 0 min 0 min 0 W/m 3,2 km/h (1 Bft) 90,91 %
08.06.2022 00:10 16,4 C 15,6 C 12,2 C 93 % 1012,2 hPa 0,0 l/m 0 min 0 min 0 W/m 6,4 km/h (2 Bft) 95,74 %
08.06.2022 00:12 16,4 C 15,6 C 12,2 C 93 % 1012,2 hPa 0,0 l/m 0 min 0 min 0 W/m 9,7 km/h (2 Bft) 97,87 %
08.06.2022 00:14 16,4 C 15,6 C 12,2 C 93 % 1012,2 hPa 0,0 l/m 0 min 0 min 0 W/m 3,2 km/h (1 Bft) 95,74 %
08.06.2022 00:16 16,3 C 15,6 C 12,2 C 93 % 1012,2 hPa 0,0 l/m 0 min 0 min 0 W/m 16,1 km/h (3 Bft) 93,62 %
08.06.2022 00:18 16,3 C 15,6 C 12,2 C 93 % 1012,1 hPa 0,0 l/m 0 min 0 min 0 W/m 16,1 km/h (3 Bft) 95,65 %
08.06.2022 00:20 16,3 C 15,6 C 12,2 C 93 % 1012,1 hPa 0,0 l/m 0 min 0 min 0 W/m 9,7 km/h (2 Bft) 95,74 %
08.06.2022 00:22 16,3 C 15,6 C 12,2 C 94 % 1012,1 hPa 0,0 l/m 0 min 0 min 0 W/m 6,4 km/h (2 Bft) 93,62 %
08.06.2022 00:24 16,3 C 15,6 C 12,2 C 93 % 1012,1 hPa 0,0 l/m 0 min 0 min 0 W/m 6,4 km/h (2 Bft) 95,74 %
08.06.2022 00:26 16,2 C 15,0 C 12,2 C 93 % 1012,1 hPa 0,0 l/m 0 min 0 min 0 W/m 6,4 km/h (2 Bft) 95,74 %
08.06.2022 00:28 16,2 C 15,0 C 12,2 C 93 % 1012,1 hPa 0,0 l/m 0 min 0 min 0 W/m 3,2 km/h (1 Bft) 95,74 %
08.06.2022 00:30 16,2 C 15,0 C 12,2 C 93 % 1012,1 hPa 0,0 l/m 0 min 0 min 0 W/m 3,2 km/h (1 Bft) 95,65 %
08.06.2022 00:32 16,2 C 15,0 C 12,2 C 93 % 1012,1 hPa 0,0 l/m 0 min 0 min 0 W/m 3,2 km/h (1 Bft) 95,74 %
08.06.2022 00:34 16,2 C 15,0 C 12,2 C 94 % 1012,0 hPa 0,0 l/m 0 min 0 min 0 W/m 3,2 km/h (1 Bft) 97,87 %
08.06.2022 00:36 16,2 C 15,0 C 12,2 C 94 % 1012,0 hPa 0,0 l/m 0 min 0 min 0 W/m 3,2 km/h (1 Bft) 95,74 %
08.06.2022 00:38 16,2 C 15,0 C 12,2 C 94 % 1012,0 hPa 0,0 l/m 0 min 0 min 0 W/m 3,2 km/h (1 Bft) 100,00 %
08.06.2022 00:40 16,1 C 15,0 C 12,2 C 94 % 1012,0 hPa 0,0 l/m 0 min 0 min 0 W/m 3,2 km/h (1 Bft) 97,83 %
08.06.2022 00:42 16,1 C 15,0 C 12,2 C 94 % 1012,0 hPa 0,0 l/m 0 min 0 min 0 W/m 0,0 km/h (0 Bft) 100,00 %
08.06.2022 00:44 16,1 C 15,0 C 11,7 C 94 % 1012,0 hPa 0,0 l/m 0 min 0 min 0 W/m 3,2 km/h (1 Bft) 100,00 %
08.06.2022 00:46 16,1 C 15,0 C 11,7 C 94 % 1012,0 hPa 0,0 l/m 0 min 0 min 0 W/m 3,2 km/h (1 Bft) 100,00 %
08.06.2022 00:48 16,1 C 15,0 C 11,7 C 94 % 1012,0 hPa 0,0 l/m 0 min 0 min 0 W/m 3,2 km/h (1 Bft) 100,00 %
08.06.2022 00:50 16,0 C 15,0 C 11,7 C 94 % 1012,0 hPa 0,0 l/m 0 min 0 min 0 W/m 3,2 km/h (1 Bft) 100,00 %
08.06.2022 00:52 16,0 C 15,0 C 11,7 C 94 % 1012,0 hPa 0,0 l/m 0 min 0 min 0 W/m 3,2 km/h (1 Bft) 100,00 %
08.06.2022 00:54 16,0 C 15,0 C 11,7 C 94 % 1011,9 hPa 0,0 l/m 0 min 0 min 0 W/m 6,4 km/h (2 Bft) 100,00 %
08.06.2022 00:56 15,9 C 15,0 C 11,7 C 94 % 1011,9 hPa 0,0 l/m 0 min 0 min 0 W/m 0,0 km/h (0 Bft) 100,00 %
08.06.2022 00:58 15,9 C 15,0 C 11,7 C 94 % 1011,9 hPa 0,0 l/m 0 min 0 min 0 W/m 3,2 km/h (1 Bft) 100,00 %
08.06.2022 01:00 15,9 C 15,0 C 11,7 C 94 % 1011,9 hPa 0,0 l/m 0 min 0 min 0 W/m 3,2 km/h (1 Bft) 100,00 %
08.06.2022 01:02 15,8 C 15,0 C 11,7 C 94 % 1011,9 hPa 0,0 l/m 0 min 0 min 0 W/m 3,2 km/h (1 Bft) 97,87 %
08.06.2022 01:04 15,8 C 15,0 C 11,7 C 94 % 1011,9 hPa 0,0 l/m 0 min 0 min 0 W/m 3,2 km/h (1 Bft) 97,83 %
08.06.2022 01:06 15,8 C 14,4 C 11,7 C 94 % 1011,9 hPa 0,0 l/m 0 min 0 min 0 W/m 3,2 km/h (1 Bft) 97,87 %
08.06.2022 01:08 15,8 C 14,4 C 11,7 C 94 % 1011,8 hPa 0,0 l/m 0 min 0 min 0 W/m 3,2 km/h (1 Bft) 97,87 %
08.06.2022 01:10 15,8 C 14,4 C 11,7 C 94 % 1011,9 hPa 0,0 l/m 0 min 0 min 0 W/m 6,4 km/h (2 Bft) 97,87 %
08.06.2022 01:12 15,7 C 14,4 C 11,7 C 94 % 1011,9 hPa 0,0 l/m 0 min 0 min 0 W/m 3,2 km/h (1 Bft) 95,74 %
08.06.2022 01:14 15,7 C 14,4 C 11,7 C 94 % 1011,8 hPa 0,0 l/m 0 min 0 min 0 W/m 3,2 km/h (1 Bft) 95,74 %
08.06.2022 01:16 15,7 C 14,4 C 11,7 C 94 % 1011,8 hPa 0,0 l/m 0 min 0 min 0 W/m 6,4 km/h (2 Bft) 97,83 %
08.06.2022 01:18 15,7 C 14,4 C 11,7 C 95 % 1011,7 hPa 0,0 l/m 0 min 0 min 0 W/m 3,2 km/h (1 Bft) 97,87 %
08.06.2022 01:20 15,7 C 15,0 C 11,7 C 95 % 1011,7 hPa 0,0 l/m 0 min 0 min 0 W/m 3,2 km/h (1 Bft) 97,87 %
08.06.2022 01:22 15,7 C 15,0 C 11,7 C 95 % 1011,6 hPa 0,0 l/m 0 min 0 min 0 W/m 6,4 km/h (2 Bft) 97,87 %
08.06.2022 01:24 15,7 C 15,0 C 11,7 C 95 % 1011,7 hPa 0,0 l/m 0 min 0 min 0 W/m 6,4 km/h (2 Bft) 97,87 %
08.06.2022 01:26 15,7 C 15,0 C 11,7 C 95 % 1011,6 hPa 0,0 l/m 0 min 0 min 0 W/m 3,2 km/h (1 Bft) 95,74 %
08.06.2022 01:28 15,7 C 15,0 C 11,7 C 95 % 1011,6 hPa 0,0 l/m 0 min 0 min 0 W/m 3,2 km/h (1 Bft) 95,74 %
08.06.2022 01:30 15,7 C 15,0 C 11,7 C 95 % 1011,6 hPa 0,0 l/m 0 min 0 min 0 W/m 3,2 km/h (1 Bft) 95,65 %
08.06.2022 01:32 15,7 C 15,0 C 11,7 C 95 % 1011,6 hPa 0,0 l/m 0 min 0 min 0 W/m 3,2 km/h (1 Bft) 97,87 %
08.06.2022 01:34 15,6 C 15,0 C 11,7 C 95 % 1011,6 hPa 0,0 l/m 0 min 0 min 0 W/m 6,4 km/h (2 Bft) 97,87 %
08.06.2022 01:36 15,6 C 15,0 C 11,7 C 95 % 1011,6 hPa 0,0 l/m 0 min 0 min 0 W/m 3,2 km/h (1 Bft) 95,74 %
08.06.2022 01:38 15,6 C 15,0 C 11,7 C 95 % 1011,6 hPa 0,0 l/m 0 min 0 min 0 W/m 3,2 km/h (1 Bft) 93,62 %
08.06.2022 01:40 15,6 C 14,4 C 11,7 C 95 % 1011,6 hPa 0,0 l/m 0 min 0 min 0 W/m 6,4 km/h (2 Bft) 97,87 %
08.06.2022 01:42 15,6 C 14,4 C 11,7 C 95 % 1011,6 hPa 0,0 l/m 0 min 0 min 0 W/m 0,0 km/h (0 Bft) 97,83 %
08.06.2022 01:44 15,6 C 14,4 C 11,7 C 95 % 1011,6 hPa 0,0 l/m 0 min 0 min 0 W/m 3,2 km/h (1 Bft) 97,87 %
08.06.2022 01:46 15,6 C 14,4 C 11,7 C 95 % 1011,6 hPa 0,0 l/m 0 min 0 min 0 W/m 3,2 km/h (1 Bft) 95,74 %
08.06.2022 01:48 15,6 C 14,4 C 11,7 C 95 % 1011,6 hPa 0,0 l/m 0 min 0 min 0 W/m 3,2 km/h (1 Bft) 95,74 %
08.06.2022 01:50 15,5 C 14,4 C 11,7 C 95 % 1011,6 hPa 0,0 l/m 0 min 0 min 0 W/m 0,0 km/h (0 Bft) 95,74 %
08.06.2022 01:52 15,5 C 14,4 C 11,7 C 95 % 1011,6 hPa 0,0 l/m 0 min 0 min 0 W/m 3,2 km/h (1 Bft) 95,74 %
08.06.2022 01:54 15,5 C 14,4 C 11,7 C 95 % 1011,6 hPa 0,0 l/m 0 min 0 min 0 W/m 0,0 km/h (0 Bft) 95,65 %
08.06.2022 01:56 15,4 C 14,4 C 11,7 C 95 % 1011,6 hPa 0,0 l/m 0 min 0 min 0 W/m 3,2 km/h (1 Bft) 97,87 %
08.06.2022 01:58 15,4 C 14,4 C 11,1 C 95 % 1011,5 hPa 0,0 l/m 0 min 0 min 0 W/m 0,0 km/h (0 Bft) 97,87 %
08.06.2022 02:00 15,4 C 14,4 C 11,1 C 95 % 1011,5 hPa 0,0 l/m 0 min 0 min 0 W/m 3,2 km/h (1 Bft) 95,74 %
08.06.2022 02:02 15,4 C 14,4 C 11,1 C 95 % 1011,5 hPa 0,0 l/m 0 min 0 min 0 W/m 3,2 km/h (1 Bft) 97,87 %
08.06.2022 02:04 15,3 C 14,4 C 11,1 C 95 % 1011,5 hPa 0,0 l/m 0 min 0 min 0 W/m 3,2 km/h (1 Bft) 97,87 %
08.06.2022 02:06 15,3 C 13,9 C 11,1 C 95 % 1011,4 hPa 0,0 l/m 0 min 0 min 0 W/m 3,2 km/h (1 Bft) 95,65 %
08.06.2022 02:08 15,3 C 14,4 C 11,1 C 95 % 1011,4 hPa 0,0 l/m 0 min 0 min 0 W/m 3,2 km/h (1 Bft) 97,87 %
08.06.2022 02:10 15,3 C 13,9 C 11,1 C 95 % 1011,5 hPa 0,0 l/m 0 min 0 min 0 W/m 0,0 km/h (0 Bft) 93,62 %
08.06.2022 02:12 15,3 C 13,9 C 11,1 C 95 % 1011,4 hPa 0,0 l/m 0 min 0 min 0 W/m 0,0 km/h (0 Bft) 97,87 %
08.06.2022 02:14 15,3 C 13,9 C 11,1 C 95 % 1011,4 hPa 0,0 l/m 0 min 0 min 0 W/m 0,0 km/h (0 Bft) 97,87 %
08.06.2022 02:16 15,2 C 13,9 C 11,1 C 95 % 1011,4 hPa 0,0 l/m 0 min 0 min 0 W/m 0,0 km/h (0 Bft) 97,83 %
08.06.2022 02:18 15,2 C 13,9 C 11,1 C 95 % 1011,3 hPa 0,0 l/m 0 min 0 min 0 W/m 0,0 km/h (0 Bft) 97,87 %
08.06.2022 02:20 15,2 C 13,9 C 11,1 C 95 % 1011,3 hPa 0,0 l/m 0 min 0 min 0 W/m 0,0 km/h (0 Bft) 97,87 %
08.06.2022 02:22 15,2 C 13,9 C 11,1 C 95 % 1011,4 hPa 0,0 l/m 0 min 0 min 0 W/m 0,0 km/h (0 Bft) 100,00 %
08.06.2022 02:24 15,1 C 13,9 C 11,1 C 96 % 1011,3 hPa 0,0 l/m 0 min 0 min 0 W/m 0,0 km/h (0 Bft) 100,00 %
08.06.2022 02:26 15,1 C 13,9 C 11,1 C 96 % 1011,3 hPa 0,0 l/m 0 min 0 min 0 W/m 0,0 km/h (0 Bft) 100,00 %
08.06.2022 02:28 15,1 C 13,9 C 11,1 C 96 % 1011,3 hPa 0,0 l/m 0 min 0 min 0 W/m 0,0 km/h (0 Bft) 97,83 %
08.06.2022 02:30 15,1 C 13,9 C 10,6 C 96 % 1011,2 hPa 0,0 l/m 0 min 0 min 0 W/m 0,0 km/h (0 Bft) 97,87 %
08.06.2022 02:32 15,0 C 13,9 C 10,6 C 96 % 1011,3 hPa 0,0 l/m 0 min 0 min 0 W/m 0,0 km/h (0 Bft) 100,00 %
08.06.2022 02:34 15,0 C 13,9 C 10,6 C 95 % 1011,2 hPa 0,0 l/m 0 min 0 min 0 W/m 0,0 km/h (0 Bft) 100,00 %
08.06.2022 02:36 14,9 C 13,9 C 10,6 C 95 % 1011,2 hPa 0,0 l/m 0 min 0 min 0 W/m 3,2 km/h (1 Bft) 97,87 %
08.06.2022 02:38 14,9 C 13,9 C 10,6 C 95 % 1011,2 hPa 0,0 l/m 0 min 0 min 0 W/m 0,0 km/h (0 Bft) 97,87 %
08.06.2022 02:40 14,9 C 13,9 C 10,6 C 95 % 1011,2 hPa 0,0 l/m 0 min 0 min 0 W/m 0,0 km/h (0 Bft) 97,83 %
08.06.2022 02:42 14,9 C 13,9 C 10,6 C 95 % 1011,1 hPa 0,0 l/m 0 min 0 min 0 W/m 0,0 km/h (0 Bft) 94,87 %
08.06.2022 02:44 14,9 C 13,9 C 10,6 C 95 % 1011,2 hPa 0,0 l/m 0 min 0 min 0 W/m 0,0 km/h (0 Bft) 97,87 %
08.06.2022 02:46 14,9 C 13,9 C 10,6 C 96 % 1011,1 hPa 0,0 l/m 0 min 0 min 0 W/m 0,0 km/h (0 Bft) 95,74 %
08.06.2022 02:48 14,9 C 13,9 C 10,6 C 96 % 1011,2 hPa 0,0 l/m 0 min 0 min 0 W/m 3,2 km/h (1 Bft) 97,87 %
08.06.2022 02:50 14,8 C 13,9 C 10,6 C 96 % 1011,1 hPa 0,0 l/m 0 min 0 min 0 W/m 0,0 km/h (0 Bft) 97,83 %
08.06.2022 02:52 14,8 C 13,9 C 10,6 C 96 % 1011,1 hPa 0,0 l/m 0 min 0 min 0 W/m 0,0 km/h (0 Bft) 95,74 %
08.06.2022 02:54 14,8 C 13,9 C 10,6 C 96 % 1011,1 hPa 0,0 l/m 0 min 0 min 0 W/m 0,0 km/h (0 Bft) 95,74 %
08.06.2022 02:56 14,8 C 13,9 C 10,6 C 96 % 1011,1 hPa 0,0 l/m 0 min 0 min 0 W/m 0,0 km/h (0 Bft) 95,74 %
08.06.2022 02:58 14,8 C 13,9 C 10,6 C 96 % 1011,1 hPa 0,0 l/m 0 min 0 min 0 W/m 0,0 km/h (0 Bft) 97,87 %
08.06.2022 03:00 14,8 C 13,3 C 10,6 C 96 % 1011,0 hPa 0,0 l/m 0 min 0 min 0 W/m 0,0 km/h (0 Bft) 97,87 %
08.06.2022 03:02 14,7 C 13,3 C 10,6 C 96 % 1010,9 hPa 0,0 l/m 0 min 0 min 0 W/m 0,0 km/h (0 Bft) 97,83 %
08.06.2022 03:04 14,7 C 13,3 C 10,6 C 96 % 1010,9 hPa 0,0 l/m 0 min 0 min 0 W/m 0,0 km/h (0 Bft) 95,74 %
08.06.2022 03:06 14,7 C 13,3 C 10,6 C 96 % 1010,9 hPa 0,0 l/m 0 min 0 min 0 W/m 0,0 km/h (0 Bft) 97,87 %
08.06.2022 03:08 14,7 C 13,3 C 10,6 C 96 % 1010,9 hPa 0,0 l/m 0 min 0 min 0 W/m 0,0 km/h (0 Bft) 97,87 %
08.06.2022 03:10 14,6 C 13,3 C 10,6 C 95 % 1010,9 hPa 0,0 l/m 0 min 0 min 0 W/m 0,0 km/h (0 Bft) 97,87 %
08.06.2022 03:12 14,6 C 13,3 C 10,0 C 95 % 1010,9 hPa 0,0 l/m 0 min 0 min 0 W/m 0,0 km/h (0 Bft) 97,87 %
08.06.2022 03:14 14,5 C 13,3 C 10,0 C 95 % 1010,9 hPa 0,0 l/m 0 min 0 min 0 W/m 0,0 km/h (0 Bft) 97,83 %
08.06.2022 03:16 14,4 C 13,3 C 10,0 C 96 % 1010,9 hPa 0,0 l/m 0 min 0 min 0 W/m 0,0 km/h (0 Bft) 97,87 %
08.06.2022 03:18 14,3 C 13,3 C 10,0 C 96 % 1010,8 hPa 0,0 l/m 0 min 0 min 0 W/m 0,0 km/h (0 Bft) 95,74 %
08.06.2022 03:20 14,3 C 12,8 C 10,0 C 96 % 1010,8 hPa 0,0 l/m 0 min 0 min 0 W/m 0,0 km/h (0 Bft) 100,00 %
08.06.2022 03:22 14,3 C 12,8 C 10,0 C 95 % 1010,8 hPa 0,0 l/m 0 min 0 min 0 W/m 0,0 km/h (0 Bft) 100,00 %
08.06.2022 03:24 14,3 C 12,8 C 10,0 C 95 % 1010,7 hPa 0,0 l/m 0 min 0 min 0 W/m 0,0 km/h (0 Bft) 100,00 %
08.06.2022 03:26 14,3 C 12,8 C 10,0 C 95 % 1010,8 hPa 0,0 l/m 0 min 0 min 0 W/m 0,0 km/h (0 Bft) 97,83 %
08.06.2022 03:28 14,2 C 12,8 C 10,0 C 95 % 1010,7 hPa 0,0 l/m 0 min 0 min 0 W/m 0,0 km/h (0 Bft) 100,00 %
08.06.2022 03:30 14,2 C 12,8 C 10,0 C 95 % 1010,7 hPa 0,0 l/m 0 min 0 min 0 W/m 0,0 km/h (0 Bft) 100,00 %
08.06.2022 03:32 14,1 C 12,8 C 10,0 C 95 % 1010,7 hPa 0,0 l/m 0 min 0 min 0 W/m 0,0 km/h (0 Bft) 97,87 %
08.06.2022 03:34 14,1 C 12,8 C 10,0 C 95 % 1010,7 hPa 0,0 l/m 0 min 0 min 0 W/m 0,0 km/h (0 Bft) 100,00 %
08.06.2022 03:36 14,0 C 12,8 C 10,0 C 95 % 1010,6 hPa 0,0 l/m 0 min 0 min 0 W/m 0,0 km/h (0 Bft) 97,87 %
08.06.2022 03:38 13,9 C 12,8 C 10,0 C 95 % 1010,6 hPa 0,0 l/m 0 min 0 min 0 W/m 0,0 km/h (0 Bft) 97,83 %
08.06.2022 03:40 13,9 C 12,8 C 10,0 C 95 % 1010,6 hPa 0,0 l/m 0 min 0 min 0 W/m 0,0 km/h (0 Bft) 97,87 %
08.06.2022 03:42 13,8 C 12,8 C 10,0 C 95 % 1010,6 hPa 0,0 l/m 0 min 0 min 0 W/m 0,0 km/h (0 Bft) 97,87 %
08.06.2022 03:44 13,8 C 12,8 C 10,0 C 95 % 1010,6 hPa 0,0 l/m 0 min 0 min 0 W/m 0,0 km/h (0 Bft) 95,74 %
08.06.2022 03:46 13,8 C 12,8 C 10,0 C 95 % 1010,5 hPa 0,0 l/m 0 min 0 min 0 W/m 0,0 km/h (0 Bft) 97,87 %
08.06.2022 03:48 13,8 C 12,2 C 10,0 C 95 % 1010,5 hPa 0,0 l/m 0 min 0 min 0 W/m 0,0 km/h (0 Bft) 97,87 %
08.06.2022 03:50 13,7 C 12,2 C 9,4 C 95 % 1010,5 hPa 0,0 l/m 0 min 0 min 0 W/m 0,0 km/h (0 Bft) 97,83 %
08.06.2022 03:52 13,7 C 12,2 C 9,4 C 95 % 1010,5 hPa 0,0 l/m 0 min 0 min 0 W/m 0,0 km/h (0 Bft) 97,87 %
08.06.2022 03:54 13,7 C 12,2 C 9,4 C 95 % 1010,4 hPa 0,0 l/m 0 min 0 min 0 W/m 0,0 km/h (0 Bft) 97,87 %
08.06.2022 03:56 13,6 C 12,2 C 9,4 C 95 % 1010,4 hPa 0,0 l/m 0 min 0 min 0 W/m 0,0 km/h (0 Bft) 97,87 %
08.06.2022 03:58 13,6 C 12,2 C 9,4 C 95 % 1010,5 hPa 0,0 l/m 0 min 0 min 0 W/m 0,0 km/h (0 Bft) 97,87 %
08.06.2022 04:00 13,6 C 12,2 C 9,4 C 95 % 1010,4 hPa 0,0 l/m 0 min 0 min 0 W/m 0,0 km/h (0 Bft) 97,87 %
08.06.2022 04:02 13,6 C 12,2 C 9,4 C 95 % 1010,4 hPa 0,0 l/m 0 min 0 min 0 W/m 0,0 km/h (0 Bft) 100,00 %
08.06.2022 04:04 13,5 C 12,2 C 9,4 C 96 % 1010,4 hPa 0,0 l/m 0 min 0 min 0 W/m 0,0 km/h (0 Bft) 100,00 %
08.06.2022 04:06 13,5 C 12,2 C 9,4 C 95 % 1010,3 hPa 0,0 l/m 0 min 0 min 0 W/m 3,2 km/h (1 Bft) 97,87 %
08.06.2022 04:08 13,4 C 12,2 C 9,4 C 95 % 1010,4 hPa 0,0 l/m 0 min 0 min 0 W/m 0,0 km/h (0 Bft) 100,00 %
08.06.2022 04:10 13,4 C 12,2 C 9,4 C 95 % 1010,3 hPa 0,0 l/m 0 min 0 min 0 W/m 0,0 km/h (0 Bft) 100,00 %
08.06.2022 04:12 13,4 C 12,2 C 9,4 C 95 % 1010,3 hPa 0,0 l/m 0 min 0 min 0 W/m 0,0 km/h (0 Bft) 97,87 %
08.06.2022 04:14 13,4 C 12,2 C 9,4 C 95 % 1010,2 hPa 0,0 l/m 0 min 0 min 0 W/m 0,0 km/h (0 Bft) 100,00 %
08.06.2022 04:16 13,4 C 12,2 C 9,4 C 95 % 1010,2 hPa 0,0 l/m 0 min 0 min 0 W/m 0,0 km/h (0 Bft) 97,87 %
08.06.2022 04:18 13,4 C 12,2 C 9,4 C 95 % 1010,2 hPa 0,0 l/m 0 min 0 min 0 W/m 0,0 km/h (0 Bft) 97,87 %
08.06.2022 04:20 13,4 C 12,2 C 9,4 C 95 % 1010,2 hPa 0,0 l/m 0 min 0 min 0 W/m 0,0 km/h (0 Bft) 97,87 %
08.06.2022 04:22 13,4 C 12,2 C 9,4 C 96 % 1010,2 hPa 0,0 l/m 0 min 0 min 0 W/m 0,0 km/h (0 Bft) 97,87 %
08.06.2022 04:24 13,3 C 12,2 C 9,4 C 96 % 1010,2 hPa 0,0 l/m 0 min 0 min 0 W/m 0,0 km/h (0 Bft) 97,87 %
08.06.2022 04:26 13,3 C 12,2 C 9,4 C 96 % 1010,1 hPa 0,0 l/m 0 min 0 min 0 W/m 0,0 km/h (0 Bft) 95,65 %
08.06.2022 04:28 13,3 C 12,2 C 9,4 C 96 % 1010,1 hPa 0,0 l/m 0 min 0 min 0 W/m 0,0 km/h (0 Bft) 97,87 %
08.06.2022 04:30 13,3 C 12,2 C 9,4 C 96 % 1010,1 hPa 0,0 l/m 0 min 0 min 0 W/m 0,0 km/h (0 Bft) 97,87 %
08.06.2022 04:32 13,3 C 12,2 C 9,4 C 96 % 1010,1 hPa 0,0 l/m 0 min 0 min 0 W/m 3,2 km/h (1 Bft) 97,87 %
08.06.2022 04:34 13,3 C 12,2 C 9,4 C 96 % 1010,1 hPa 0,0 l/m 0 min 0 min 0 W/m 3,2 km/h (1 Bft) 97,87 %
08.06.2022 04:36 13,3 C 12,2 C 10,0 C 96 % 1010,1 hPa 0,0 l/m 0 min 0 min 0 W/m 3,2 km/h (1 Bft) 97,87 %
08.06.2022 04:38 13,3 C 12,8 C 10,0 C 96 % 1010,0 hPa 0,0 l/m 0 min 0 min 0 W/m 3,2 km/h (1 Bft) 93,48 %
08.06.2022 04:40 13,4 C 12,8 C 10,0 C 96 % 1009,9 hPa 0,0 l/m 0 min 0 min 0 W/m 3,2 km/h (1 Bft) 97,87 %
08.06.2022 04:42 13,4 C 12,8 C 10,0 C 96 % 1010,0 hPa 0,0 l/m 0 min 0 min 0 W/m 3,2 km/h (1 Bft) 97,87 %
08.06.2022 04:44 13,4 C 12,8 C 10,0 C 96 % 1009,9 hPa 0,0 l/m 0 min 0 min 0 W/m 3,2 km/h (1 Bft) 95,74 %
08.06.2022 04:46 13,5 C 12,8 C 10,0 C 96 % 1009,9 hPa 0,0 l/m 0 min 0 min 0 W/m 3,2 km/h (1 Bft) 95,74 %
08.06.2022 04:48 13,5 C 12,8 C 10,0 C 96 % 1009,9 hPa 0,0 l/m 0 min 0 min 0 W/m 3,2 km/h (1 Bft) 95,74 %
08.06.2022 04:50 13,5 C 12,8 C 10,0 C 96 % 1009,8 hPa 0,0 l/m 0 min 0 min 0 W/m 6,4 km/h (2 Bft) 97,83 %
08.06.2022 04:52 13,6 C 12,8 C 10,0 C 96 % 1009,8 hPa 0,0 l/m 0 min 0 min 0 W/m 3,2 km/h (1 Bft) 97,87 %
08.06.2022 04:54 13,6 C 12,8 C 10,0 C 96 % 1009,7 hPa 0,0 l/m 0 min 0 min 0 W/m 3,2 km/h (1 Bft) 97,87 %
08.06.2022 04:56 13,6 C 12,8 C 10,0 C 96 % 1009,8 hPa 0,0 l/m 0 min 0 min 0 W/m 3,2 km/h (1 Bft) 95,74 %
08.06.2022 04:58 13,6 C 12,8 C 10,0 C 96 % 1009,7 hPa 0,0 l/m 0 min 0 min 0 W/m 3,2 km/h (1 Bft) 95,74 %
08.06.2022 05:00 13,6 C 12,8 C 10,0 C 96 % 1009,7 hPa 0,0 l/m 0 min 0 min 0 W/m 3,2 km/h (1 Bft) 97,87 %
08.06.2022 05:02 13,6 C 12,8 C 10,0 C 96 % 1009,8 hPa 0,0 l/m 0 min 0 min 0 W/m 3,2 km/h (1 Bft) 95,65 %
08.06.2022 05:04 13,6 C 12,8 C 10,0 C 97 % 1009,7 hPa 0,0 l/m 0 min 0 min 0 W/m 6,4 km/h (2 Bft) 95,74 %
08.06.2022 05:06 13,6 C 12,8 C 10,0 C 97 % 1009,7 hPa 0,0 l/m 0 min 0 min 0 W/m 3,2 km/h (1 Bft) 95,74 %
08.06.2022 05:08 13,6 C 12,8 C 10,0 C 97 % 1009,7 hPa 0,0 l/m 0 min 0 min 0 W/m 3,2 km/h (1 Bft) 93,62 %
08.06.2022 05:10 13,6 C 12,8 C 10,0 C 97 % 1009,7 hPa 0,0 l/m 0 min 0 min 0 W/m 6,4 km/h (2 Bft) 95,74 %
08.06.2022 05:12 13,7 C 12,8 C 10,0 C 97 % 1009,7 hPa 0,0 l/m 0 min 0 min 0 W/m 3,2 km/h (1 Bft) 95,74 %
08.06.2022 05:14 13,7 C 12,8 C 10,0 C 97 % 1009,6 hPa 0,0 l/m 0 min 0 min 4 W/m 6,4 km/h (2 Bft) 97,83 %
08.06.2022 05:16 13,7 C 12,8 C 10,0 C 97 % 1009,7 hPa 0,0 l/m 0 min 0 min 5 W/m 3,2 km/h (1 Bft) 97,87 %
08.06.2022 05:18 13,7 C 12,8 C 10,0 C 97 % 1009,6 hPa 0,0 l/m 0 min 0 min 5 W/m 3,2 km/h (1 Bft) 93,62 %
08.06.2022 05:20 13,7 C 12,8 C 10,0 C 97 % 1009,7 hPa 0,0 l/m 0 min 0 min 6 W/m 6,4 km/h (2 Bft) 95,74 %
08.06.2022 05:22 13,7 C 12,8 C 10,0 C 97 % 1009,6 hPa 0,0 l/m 0 min 0 min 7 W/m 6,4 km/h (2 Bft) 95,74 %
08.06.2022 05:24 13,7 C 12,8 C 10,0 C 97 % 1009,7 hPa 0,0 l/m 0 min 0 min 8 W/m 3,2 km/h (1 Bft) 95,74 %
08.06.2022 05:26 13,7 C 12,8 C 10,0 C 97 % 1009,7 hPa 0,0 l/m 0 min 0 min 9 W/m 6,4 km/h (2 Bft) 95,65 %
08.06.2022 05:28 13,7 C 12,8 C 10,0 C 97 % 1009,7 hPa 0,0 l/m 0 min 0 min 9 W/m 6,4 km/h (2 Bft) 93,62 %
08.06.2022 05:30 13,7 C 12,8 C 10,0 C 97 % 1009,7 hPa 0,0 l/m 0 min 0 min 11 W/m 3,2 km/h (1 Bft) 95,74 %
08.06.2022 05:32 13,7 C 12,8 C 10,0 C 97 % 1009,7 hPa 0,0 l/m 0 min 0 min 11 W/m 3,2 km/h (1 Bft) 95,74 %
08.06.2022 05:34 13,7 C 12,8 C 10,0 C 97 % 1009,8 hPa 0,0 l/m 0 min 0 min 11 W/m 3,2 km/h (1 Bft) 95,74 %
08.06.2022 05:36 13,7 C 12,8 C 10,0 C 97 % 1009,8 hPa 0,0 l/m 0 min 0 min 12 W/m 3,2 km/h (1 Bft) 95,74 %
08.06.2022 05:38 13,7 C 12,8 C 10,0 C 97 % 1009,8 hPa 0,0 l/m 0 min 0 min 12 W/m 6,4 km/h (2 Bft) 93,48 %
08.06.2022 05:40 13,7 C 12,8 C 10,0 C 97 % 1009,8 hPa 0,0 l/m 0 min 0 min 13 W/m 3,2 km/h (1 Bft) 95,74 %
08.06.2022 05:42 13,7 C 12,8 C 10,0 C 97 % 1009,7 hPa 0,0 l/m 0 min 0 min 14 W/m 6,4 km/h (2 Bft) 95,74 %
08.06.2022 05:44 13,8 C 12,8 C 10,0 C 97 % 1009,7 hPa 0,0 l/m 0 min 0 min 15 W/m 6,4 km/h (2 Bft) 95,74 %
08.06.2022 05:46 13,8 C 12,8 C 10,0 C 97 % 1009,8 hPa 0,0 l/m 0 min 0 min 16 W/m 3,2 km/h (1 Bft) 95,74 %
08.06.2022 05:48 13,7 C 12,8 C 10,0 C 97 % 1009,8 hPa 0,0 l/m 0 min 0 min 17 W/m 6,4 km/h (2 Bft) 97,87 %
08.06.2022 05:50 13,7 C 12,8 C 10,0 C 97 % 1009,7 hPa 0,0 l/m 0 min 0 min 18 W/m 3,2 km/h (1 Bft) 97,83 %
08.06.2022 05:52 13,7 C 12,8 C 10,0 C 97 % 1009,7 hPa 0,0 l/m 0 min 0 min 19 W/m 3,2 km/h (1 Bft) 97,87 %
08.06.2022 05:54 13,7 C 12,8 C 10,0 C 97 % 1009,7 hPa 0,0 l/m 0 min 0 min 20 W/m 6,4 km/h (2 Bft) 100,00 %
08.06.2022 05:56 13,7 C 12,8 C 10,0 C 97 % 1009,6 hPa 0,0 l/m 0 min 0 min 21 W/m 6,4 km/h (2 Bft) 97,87 %
08.06.2022 05:58 13,7 C 12,8 C 10,0 C 97 % 1009,6 hPa 0,0 l/m 0 min 0 min 23 W/m 6,4 km/h (2 Bft) 100,00 %
08.06.2022 06:00 13,7 C 12,8 C 10,0 C 97 % 1009,6 hPa 0,0 l/m 0 min 0 min 24 W/m 12,9 km/h (3 Bft) 100,00 %
08.06.2022 06:02 13,7 C 12,8 C 10,0 C 97 % 1009,6 hPa 0,0 l/m 0 min 0 min 25 W/m 6,4 km/h (2 Bft) 97,83 %
08.06.2022 06:04 13,7 C 12,8 C 10,0 C 97 % 1009,6 hPa 0,0 l/m 0 min 0 min 26 W/m 6,4 km/h (2 Bft) 100,00 %
08.06.2022 06:07 13,7 C 12,8 C 10,0 C 97 % 1009,5 hPa 0,0 l/m 0 min 0 min 26 W/m 6,4 km/h (2 Bft) 100,00 %
08.06.2022 06:08 13,7 C 12,8 C 10,0 C 97 % 1009,5 hPa 0,0 l/m 0 min 0 min 26 W/m 3,2 km/h (1 Bft) 100,00 %
08.06.2022 06:10 13,7 C 12,8 C 10,0 C 97 % 1009,5 hPa 0,0 l/m 0 min 0 min 26 W/m 6,4 km/h (2 Bft) 100,00 %
08.06.2022 06:12 13,7 C 12,8 C 10,0 C 97 % 1009,5 hPa 0,0 l/m 0 min 0 min 27 W/m 6,4 km/h (2 Bft) 100,00 %
08.06.2022 06:14 13,7 C 12,8 C 10,0 C 97 % 1009,5 hPa 0,0 l/m 0 min 0 min 28 W/m 6,4 km/h (2 Bft) 100,00 %
08.06.2022 06:16 13,7 C 12,8 C 10,0 C 97 % 1009,6 hPa 0,0 l/m 0 min 0 min 29 W/m 6,4 km/h (2 Bft) 100,00 %
08.06.2022 06:18 13,7 C 12,8 C 10,0 C 97 % 1009,6 hPa 0,0 l/m 0 min 0 min 30 W/m 6,4 km/h (2 Bft) 100,00 %
08.06.2022 06:20 13,7 C 12,8 C 10,6 C 97 % 1009,6 hPa 0,0 l/m 0 min 0 min 32 W/m 6,4 km/h (2 Bft) 100,00 %
08.06.2022 06:22 13,8 C 13,3 C 10,6 C 97 % 1009,6 hPa 0,0 l/m 0 min 0 min 33 W/m 3,2 km/h (1 Bft) 100,00 %
08.06.2022 06:24 13,8 C 13,3 C 10,6 C 97 % 1009,7 hPa 0,0 l/m 0 min 0 min 33 W/m 3,2 km/h (1 Bft) 100,00 %
08.06.2022 06:26 13,8 C 13,3 C 10,6 C 97 % 1009,7 hPa 0,0 l/m 0 min 0 min 35 W/m 6,4 km/h (2 Bft) 100,00 %
08.06.2022 06:28 13,8 C 13,3 C 10,6 C 97 % 1009,7 hPa 0,0 l/m 0 min 0 min 33 W/m 3,2 km/h (1 Bft) 100,00 %
08.06.2022 06:30 13,8 C 13,3 C 10,6 C 98 % 1009,7 hPa 0,0 l/m 0 min 0 min 33 W/m 6,4 km/h (2 Bft) 100,00 %
08.06.2022 06:32 13,8 C 13,3 C 10,6 C 98 % 1009,7 hPa 0,0 l/m 0 min 0 min 32 W/m 6,4 km/h (2 Bft) 100,00 %
08.06.2022 06:34 13,8 C 13,3 C 10,6 C 98 % 1009,6 hPa 0,0 l/m 0 min 0 min 32 W/m 6,4 km/h (2 Bft) 100,00 %
08.06.2022 06:36 13,8 C 13,3 C 10,6 C 98 % 1009,5 hPa 0,0 l/m 0 min 0 min 33 W/m 6,4 km/h (2 Bft) 97,87 %
08.06.2022 06:38 13,8 C 13,3 C 10,6 C 98 % 1009,5 hPa 0,0 l/m 0 min 0 min 35 W/m 6,4 km/h (2 Bft) 100,00 %
08.06.2022 06:40 13,9 C 13,3 C 10,6 C 98 % 1009,4 hPa 0,0 l/m 0 min 0 min 39 W/m 3,2 km/h (1 Bft) 100,00 %
08.06.2022 06:42 13,9 C 13,3 C 10,6 C 98 % 1009,5 hPa 0,0 l/m 0 min 0 min 43 W/m 6,4 km/h (2 Bft) 100,00 %
08.06.2022 06:44 13,9 C 13,3 C 10,6 C 98 % 1009,5 hPa 0,0 l/m 0 min 0 min 48 W/m 12,9 km/h (3 Bft) 100,00 %
08.06.2022 06:46 13,9 C 13,3 C 10,6 C 98 % 1009,5 hPa 0,0 l/m 0 min 0 min 53 W/m 6,4 km/h (2 Bft) 100,00 %
08.06.2022 06:48 13,9 C 13,3 C 10,6 C 98 % 1009,4 hPa 0,0 l/m 0 min 0 min 56 W/m 6,4 km/h (2 Bft) 100,00 %
08.06.2022 06:50 13,9 C 13,3 C 10,6 C 98 % 1009,5 hPa 0,0 l/m 0 min 0 min 63 W/m 6,4 km/h (2 Bft) 100,00 %
08.06.2022 06:52 13,9 C 13,3 C 10,6 C 98 % 1009,4 hPa 0,0 l/m 0 min 0 min 70 W/m 6,4 km/h (2 Bft) 100,00 %
08.06.2022 06:54 14,0 C 13,9 C 10,6 C 98 % 1009,4 hPa 0,0 l/m 0 min 0 min 76 W/m 3,2 km/h (1 Bft) 100,00 %
08.06.2022 06:56 14,0 C 13,9 C 10,6 C 98 % 1009,4 hPa 0,0 l/m 0 min 0 min 83 W/m 12,9 km/h (3 Bft) 100,00 %
08.06.2022 06:58 14,1 C 13,9 C 10,6 C 98 % 1009,5 hPa 0,0 l/m 0 min 0 min 88 W/m 6,4 km/h (2 Bft) 97,87 %
08.06.2022 07:00 14,1 C 13,9 C 11,1 C 98 % 1009,5 hPa 0,0 l/m 0 min 0 min 93 W/m 6,4 km/h (2 Bft) 100,00 %
08.06.2022 07:02 14,2 C 13,9 C 11,1 C 98 % 1009,4 hPa 0,0 l/m 0 min 0 min 99 W/m 6,4 km/h (2 Bft) 100,00 %
08.06.2022 07:04 14,3 C 13,9 C 11,1 C 98 % 1009,4 hPa 0,0 l/m 0 min 0 min 105 W/m 16,1 km/h (3 Bft) 100,00 %
08.06.2022 07:06 14,3 C 14,4 C 11,1 C 98 % 1009,4 hPa 0,0 l/m 0 min 0 min 111 W/m 12,9 km/h (3 Bft) 100,00 %
08.06.2022 07:08 14,3 C 14,4 C 11,1 C 98 % 1009,4 hPa 0,0 l/m 0 min 0 min 118 W/m 6,4 km/h (2 Bft) 97,87 %
08.06.2022 07:10 14,3 C 14,4 C 11,1 C 98 % 1009,3 hPa 0,0 l/m 0 min 0 min 124 W/m 6,4 km/h (2 Bft) 100,00 %
08.06.2022 07:12 14,4 C 14,4 C 11,7 C 98 % 1009,3 hPa 0,0 l/m 0 min 0 min 129 W/m 9,7 km/h (2 Bft) 95,74 %
08.06.2022 07:14 14,5 C 15,0 C 11,7 C 98 % 1009,3 hPa 0,0 l/m 2 min 0 min 135 W/m 3,2 km/h (1 Bft) 97,87 %
08.06.2022 07:16 14,6 C 15,0 C 11,7 C 98 % 1009,2 hPa 0,0 l/m 2 min 0 min 137 W/m 6,4 km/h (2 Bft) 97,83 %
08.06.2022 07:18 14,6 C 15,0 C 11,7 C 98 % 1009,2 hPa 0,0 l/m 2 min 0 min 138 W/m 3,2 km/h (1 Bft) 97,87 %
08.06.2022 07:20 14,7 C 15,0 C 11,7 C 98 % 1009,2 hPa 0,0 l/m 0 min 0 min 131 W/m 6,4 km/h (2 Bft) 93,62 %
08.06.2022 07:22 14,7 C 15,0 C 11,7 C 98 % 1009,3 hPa 0,0 l/m 0 min 0 min 120 W/m 3,2 km/h (1 Bft) 95,74 %
08.06.2022 07:24 14,8 C 15,0 C 11,7 C 98 % 1009,3 hPa 0,0 l/m 0 min 0 min 113 W/m 6,4 km/h (2 Bft) 95,74 %
08.06.2022 07:26 14,8 C 15,0 C 11,7 C 98 % 1009,3 hPa 0,0 l/m 0 min 0 min 104 W/m 6,4 km/h (2 Bft) 93,62 %
08.06.2022 07:28 14,9 C 15,0 C 11,7 C 98 % 1009,2 hPa 0,0 l/m 0 min 0 min 104 W/m 6,4 km/h (2 Bft) 93,48 %
08.06.2022 07:30 14,9 C 15,0 C 12,2 C 98 % 1009,2 hPa 0,0 l/m 0 min 0 min 109 W/m 6,4 km/h (2 Bft) 95,74 %
08.06.2022 07:32 14,9 C 15,0 C 12,2 C 98 % 1009,2 hPa 0,0 l/m 0 min 0 min 115 W/m 6,4 km/h (2 Bft) 93,62 %
08.06.2022 07:34 14,9 C 15,0 C 12,2 C 98 % 1009,2 hPa 0,0 l/m 0 min 0 min 121 W/m 6,4 km/h (2 Bft) 93,62 %
08.06.2022 07:36 14,9 C 15,0 C 12,2 C 98 % 1009,2 hPa 0,0 l/m 0 min 0 min 127 W/m 6,4 km/h (2 Bft) 95,74 %
08.06.2022 07:38 15,0 C 15,0 C 12,2 C 98 % 1009,2 hPa 0,0 l/m 0 min 0 min 133 W/m 6,4 km/h (2 Bft) 93,62 %
08.06.2022 07:40 15,1 C 15,6 C 12,2 C 98 % 1009,1 hPa 0,0 l/m 0 min 0 min 137 W/m 6,4 km/h (2 Bft) 95,65 %
08.06.2022 07:42 15,1 C 15,6 C 12,2 C 98 % 1009,1 hPa 0,0 l/m 0 min 0 min 141 W/m 6,4 km/h (2 Bft) 95,74 %
08.06.2022 07:44 15,1 C 15,6 C 12,2 C 98 % 1009,1 hPa 0,0 l/m 0 min 0 min 144 W/m 6,4 km/h (2 Bft) 95,74 %
08.06.2022 07:46 15,1 C 15,6 C 12,2 C 98 % 1009,0 hPa 0,0 l/m 0 min 0 min 142 W/m 3,2 km/h (1 Bft) 97,87 %
08.06.2022 07:48 15,2 C 15,6 C 12,2 C 98 % 1009,0 hPa 0,0 l/m 0 min 0 min 142 W/m 6,4 km/h (2 Bft) 95,74 %
08.06.2022 07:50 15,2 C 15,6 C 12,2 C 98 % 1009,0 hPa 0,0 l/m 0 min 0 min 140 W/m 6,4 km/h (2 Bft) 95,74 %
08.06.2022 07:52 15,3 C 15,6 C 12,8 C 98 % 1008,9 hPa 0,0 l/m 0 min 0 min 142 W/m 3,2 km/h (1 Bft) 95,65 %
08.06.2022 07:54 15,3 C 15,6 C 12,8 C 98 % 1008,9 hPa 0,0 l/m 0 min 0 min 152 W/m 6,4 km/h (2 Bft) 93,62 %
08.06.2022 07:56 15,3 C 15,6 C 12,8 C 98 % 1008,9 hPa 0,0 l/m 0 min 0 min 157 W/m 6,4 km/h (2 Bft) 95,74 %
08.06.2022 07:58 15,4 C 16,1 C 12,8 C 98 % 1008,8 hPa 0,0 l/m 0 min 0 min 156 W/m 6,4 km/h (2 Bft) 95,74 %
08.06.2022 08:00 15,4 C 16,1 C 12,8 C 98 % 1008,8 hPa 0,0 l/m 0 min 0 min 155 W/m 6,4 km/h (2 Bft) 95,74 %
08.06.2022 08:02 15,4 C 16,1 C 12,8 C 98 % 1008,8 hPa 0,0 l/m 0 min 0 min 156 W/m 3,2 km/h (1 Bft) 93,62 %
08.06.2022 08:04 15,4 C 16,1 C 12,8 C 98 % 1008,8 hPa 0,0 l/m 0 min 0 min 149 W/m 6,4 km/h (2 Bft) 95,65 %
08.06.2022 08:06 15,5 C 16,1 C 12,8 C 98 % 1008,8 hPa 0,0 l/m 0 min 0 min 144 W/m 6,4 km/h (2 Bft) 97,87 %
08.06.2022 08:08 15,5 C 16,1 C 12,8 C 98 % 1008,8 hPa 0,0 l/m 0 min 0 min 140 W/m 3,2 km/h (1 Bft) 97,87 %
08.06.2022 08:10 15,6 C 16,1 C 12,8 C 97 % 1008,7 hPa 0,0 l/m 0 min 0 min 141 W/m 6,4 km/h (2 Bft) 95,74 %
08.06.2022 08:12 15,6 C 16,1 C 12,8 C 97 % 1008,7 hPa 0,0 l/m 0 min 0 min 144 W/m 6,4 km/h (2 Bft) 97,87 %
08.06.2022 08:14 15,6 C 16,1 C 12,8 C 97 % 1008,7 hPa 0,0 l/m 0 min 0 min 149 W/m 6,4 km/h (2 Bft) 97,87 %
08.06.2022 08:16 15,6 C 16,1 C 12,8 C 97 % 1008,7 hPa 0,0 l/m 0 min 0 min 154 W/m 6,4 km/h (2 Bft) 95,65 %
08.06.2022 08:18 15,7 C 16,1 C 12,8 C 97 % 1008,7 hPa 0,0 l/m 0 min 0 min 158 W/m 3,2 km/h (1 Bft) 97,87 %
08.06.2022 08:20 15,7 C 16,1 C 12,8 C 97 % 1008,7 hPa 0,0 l/m 0 min 0 min 164 W/m 3,2 km/h (1 Bft) 97,87 %
08.06.2022 08:22 15,7 C 16,1 C 12,8 C 97 % 1008,7 hPa 0,0 l/m 0 min 0 min 170 W/m 12,9 km/h (3 Bft) 97,87 %
08.06.2022 08:24 15,8 C 16,1 C 12,8 C 97 % 1008,7 hPa 0,0 l/m 0 min 0 min 173 W/m 6,4 km/h (2 Bft) 95,74 %
08.06.2022 08:26 15,8 C 16,7 C 12,8 C 97 % 1008,7 hPa 0,0 l/m 0 min 0 min 177 W/m 9,7 km/h (2 Bft) 97,83 %
08.06.2022 08:28 15,9 C 16,7 C 12,8 C 97 % 1008,7 hPa 0,0 l/m 0 min 0 min 183 W/m 6,4 km/h (2 Bft) 97,87 %
08.06.2022 08:30 15,9 C 16,7 C 13,3 C 97 % 1008,7 hPa 0,0 l/m 0 min 0 min 187 W/m 3,2 km/h (1 Bft) 97,87 %
08.06.2022 08:32 15,9 C 16,7 C 13,3 C 96 % 1008,6 hPa 0,0 l/m 0 min 0 min 190 W/m 9,7 km/h (2 Bft) 97,87 %
08.06.2022 08:34 16,0 C 16,7 C 13,3 C 96 % 1008,6 hPa 0,0 l/m 0 min 0 min 192 W/m 6,4 km/h (2 Bft) 97,87 %
08.06.2022 08:36 16,1 C 16,7 C 13,3 C 96 % 1008,6 hPa 0,0 l/m 0 min 0 min 193 W/m 6,4 km/h (2 Bft) 97,87 %
08.06.2022 08:38 16,1 C 16,7 C 13,3 C 96 % 1008,6 hPa 0,0 l/m 0 min 0 min 197 W/m 12,9 km/h (3 Bft) 100,00 %
08.06.2022 08:40 16,2 C 16,7 C 13,3 C 95 % 1008,5 hPa 0,0 l/m 0 min 0 min 197 W/m 12,9 km/h (3 Bft) 100,00 %
08.06.2022 08:42 16,2 C 16,7 C 13,3 C 95 % 1008,6 hPa 0,0 l/m 0 min 0 min 200 W/m 16,1 km/h (3 Bft) 100,00 %
08.06.2022 08:44 16,3 C 16,7 C 13,3 C 95 % 1008,5 hPa 0,0 l/m 0 min 0 min 207 W/m 12,9 km/h (3 Bft) 100,00 %
08.06.2022 08:46 16,3 C 16,7 C 13,3 C 94 % 1008,5 hPa 0,0 l/m 0 min 0 min 214 W/m 12,9 km/h (3 Bft) 100,00 %
08.06.2022 08:48 16,4 C 16,7 C 13,3 C 94 % 1008,5 hPa 0,0 l/m 0 min 0 min 221 W/m 6,4 km/h (2 Bft) 100,00 %
08.06.2022 08:50 16,4 C 17,2 C 13,3 C 94 % 1008,5 hPa 0,0 l/m 0 min 0 min 228 W/m 6,4 km/h (2 Bft) 100,00 %
08.06.2022 08:52 16,5 C 17,2 C 13,3 C 94 % 1008,6 hPa 0,0 l/m 0 min 0 min 237 W/m 16,1 km/h (3 Bft) 100,00 %
08.06.2022 08:54 16,6 C 17,2 C 13,3 C 93 % 1008,6 hPa 0,0 l/m 0 min 0 min 240 W/m 12,9 km/h (3 Bft) 100,00 %
08.06.2022 08:56 16,6 C 17,2 C 13,3 C 93 % 1008,6 hPa 0,0 l/m 0 min 0 min 246 W/m 16,1 km/h (3 Bft) 100,00 %
08.06.2022 08:58 16,7 C 16,7 C 13,3 C 93 % 1008,5 hPa 0,0 l/m 0 min 0 min 256 W/m 16,1 km/h (3 Bft) 100,00 %
08.06.2022 09:00 16,7 C 17,2 C 13,9 C 92 % 1008,5 hPa 0,0 l/m 0 min 0 min 264 W/m 6,4 km/h (2 Bft) 100,00 %
08.06.2022 09:02 16,8 C 17,2 C 13,9 C 92 % 1008,5 hPa 0,0 l/m 2 min 0 min 271 W/m 12,9 km/h (3 Bft) 100,00 %
08.06.2022 09:04 16,8 C 17,2 C 13,9 C 92 % 1008,4 hPa 0,0 l/m 2 min 0 min 275 W/m 19,3 km/h (3 Bft) 97,87 %
08.06.2022 09:06 16,9 C 17,2 C 13,9 C 92 % 1008,5 hPa 0,0 l/m 0 min 0 min 264 W/m 12,9 km/h (3 Bft) 97,87 %
08.06.2022 09:08 17,0 C 17,8 C 13,9 C 91 % 1008,4 hPa 0,0 l/m 0 min 0 min 247 W/m 12,9 km/h (3 Bft) 100,00 %
08.06.2022 09:10 17,1 C 17,2 C 13,9 C 91 % 1008,5 hPa 0,0 l/m 0 min 0 min 231 W/m 16,1 km/h (3 Bft) 100,00 %
08.06.2022 09:12 17,1 C 17,2 C 13,9 C 90 % 1008,4 hPa 0,0 l/m 0 min 0 min 216 W/m 12,9 km/h (3 Bft) 97,87 %
08.06.2022 09:14 17,2 C 17,2 C 13,9 C 90 % 1008,4 hPa 0,0 l/m 0 min 0 min 204 W/m 12,9 km/h (3 Bft) 97,83 %
08.06.2022 09:16 17,2 C 17,2 C 13,9 C 90 % 1008,3 hPa 0,0 l/m 0 min 0 min 191 W/m 6,4 km/h (2 Bft) 95,74 %
08.06.2022 09:18 17,2 C 17,2 C 13,9 C 90 % 1008,4 hPa 0,0 l/m 0 min 0 min 179 W/m 12,9 km/h (3 Bft) 97,87 %
08.06.2022 09:20 17,3 C 17,2 C 13,9 C 90 % 1008,3 hPa 0,0 l/m 0 min 0 min 168 W/m 9,7 km/h (2 Bft) 97,87 %
08.06.2022 09:22 17,3 C 17,2 C 13,9 C 90 % 1008,3 hPa 0,0 l/m 0 min 0 min 160 W/m 12,9 km/h (3 Bft) 97,87 %
08.06.2022 09:24 17,3 C 17,2 C 13,9 C 90 % 1008,4 hPa 0,0 l/m 0 min 0 min 155 W/m 12,9 km/h (3 Bft) 97,87 %
08.06.2022 09:26 17,3 C 16,7 C 13,9 C 89 % 1008,3 hPa 0,0 l/m 0 min 0 min 153 W/m 16,1 km/h (3 Bft) 97,83 %
08.06.2022 09:28 17,3 C 16,7 C 13,3 C 89 % 1008,3 hPa 0,0 l/m 0 min 0 min 153 W/m 12,9 km/h (3 Bft) 97,87 %
08.06.2022 09:30 17,3 C 16,7 C 13,3 C 89 % 1008,3 hPa 0,0 l/m 0 min 0 min 155 W/m 16,1 km/h (3 Bft) 97,87 %
08.06.2022 09:32 17,3 C 16,7 C 13,3 C 89 % 1008,3 hPa 0,0 l/m 0 min 0 min 158 W/m 12,9 km/h (3 Bft) 97,87 %
08.06.2022 09:34 17,3 C 16,7 C 13,3 C 89 % 1008,3 hPa 0,0 l/m 0 min 0 min 163 W/m 6,4 km/h (2 Bft) 97,87 %
08.06.2022 09:36 17,3 C 16,7 C 13,3 C 89 % 1008,3 hPa 0,0 l/m 0 min 0 min 165 W/m 12,9 km/h (3 Bft) 97,87 %
08.06.2022 09:38 17,3 C 16,7 C 13,3 C 89 % 1008,3 hPa 0,0 l/m 0 min 0 min 166 W/m 12,9 km/h (3 Bft) 100,00 %
08.06.2022 09:40 17,3 C 17,2 C 13,9 C 89 % 1008,3 hPa 0,0 l/m 0 min 0 min 168 W/m 3,2 km/h (1 Bft) 97,87 %
08.06.2022 09:42 17,3 C 17,2 C 13,9 C 89 % 1008,3 hPa 0,0 l/m 0 min 0 min 171 W/m 12,9 km/h (3 Bft) 95,74 %
08.06.2022 09:44 17,4 C 17,2 C 13,9 C 89 % 1008,3 hPa 0,0 l/m 0 min 0 min 176 W/m 16,1 km/h (3 Bft) 97,87 %
08.06.2022 09:46 17,4 C 17,2 C 13,9 C 89 % 1008,3 hPa 0,0 l/m 0 min 0 min 180 W/m 9,7 km/h (2 Bft) 97,87 %
08.06.2022 09:48 17,4 C 17,2 C 13,9 C 89 % 1008,3 hPa 0,0 l/m 0 min 0 min 183 W/m 12,9 km/h (3 Bft) 97,87 %
08.06.2022 09:50 17,4 C 17,2 C 13,9 C 89 % 1008,3 hPa 0,0 l/m 0 min 0 min 186 W/m 9,7 km/h (2 Bft) 100,00 %
08.06.2022 09:52 17,4 C 17,2 C 13,9 C 89 % 1008,1 hPa 0,0 l/m 0 min 0 min 188 W/m 16,1 km/h (3 Bft) 100,00 %
08.06.2022 09:54 17,4 C 17,2 C 13,9 C 89 % 1008,2 hPa 0,0 l/m 0 min 0 min 192 W/m 12,9 km/h (3 Bft) 100,00 %
08.06.2022 09:56 17,4 C 17,2 C 13,9 C 89 % 1008,1 hPa 0,0 l/m 0 min 0 min 196 W/m 12,9 km/h (3 Bft) 97,87 %
08.06.2022 09:58 17,4 C 17,2 C 13,9 C 89 % 1008,2 hPa 0,0 l/m 0 min 0 min 200 W/m 12,9 km/h (3 Bft) 97,87 %
08.06.2022 10:00 17,4 C 17,2 C 13,9 C 89 % 1008,2 hPa 0,0 l/m 0 min 0 min 208 W/m 6,4 km/h (2 Bft) 97,87 %
08.06.2022 10:02 17,5 C 17,2 C 13,9 C 89 % 1008,2 hPa 0,0 l/m 0 min 0 min 219 W/m 12,9 km/h (3 Bft) 97,83 %
08.06.2022 10:04 17,5 C 17,2 C 13,9 C 89 % 1008,1 hPa 0,0 l/m 0 min 0 min 239 W/m 6,4 km/h (2 Bft) 100,00 %
08.06.2022 10:06 17,6 C 17,8 C 13,9 C 89 % 1008,1 hPa 0,0 l/m 0 min 0 min 263 W/m 12,9 km/h (3 Bft) 97,87 %
08.06.2022 10:08 17,6 C 17,8 C 14,4 C 89 % 1008,1 hPa 0,0 l/m 0 min 0 min 288 W/m 16,1 km/h (3 Bft) 95,74 %
08.06.2022 10:10 17,7 C 17,8 C 14,4 C 89 % 1008,0 hPa 0,0 l/m 0 min 0 min 321 W/m 16,1 km/h (3 Bft) 97,87 %
08.06.2022 10:12 17,7 C 17,8 C 14,4 C 89 % 1008,1 hPa 0,0 l/m 0 min 0 min 336 W/m 12,9 km/h (3 Bft) 100,00 %
08.06.2022 10:14 17,8 C 18,3 C 14,4 C 89 % 1008,0 hPa 0,0 l/m 0 min 0 min 339 W/m 12,9 km/h (3 Bft) 95,65 %
08.06.2022 10:16 17,8 C 18,3 C 15,0 C 89 % 1008,1 hPa 0,0 l/m 0 min 0 min 329 W/m 16,1 km/h (3 Bft) 97,87 %
08.06.2022 10:18 17,9 C 18,3 C 15,0 C 89 % 1008,1 hPa 0,0 l/m 0 min 0 min 336 W/m 12,9 km/h (3 Bft) 95,74 %
08.06.2022 10:20 18,0 C 18,9 C 15,0 C 89 % 1008,0 hPa 0,0 l/m 2 min 0 min 358 W/m 12,9 km/h (3 Bft) 97,87 %
08.06.2022 10:22 18,1 C 18,9 C 15,0 C 88 % 1008,1 hPa 0,0 l/m 2 min 0 min 378 W/m 19,3 km/h (3 Bft) 95,74 %
08.06.2022 10:24 18,2 C 18,9 C 15,6 C 88 % 1008,0 hPa 0,0 l/m 2 min 0 min 408 W/m 16,1 km/h (3 Bft) 97,87 %
08.06.2022 10:26 18,3 C 19,4 C 16,1 C 88 % 1008,0 hPa 0,0 l/m 2 min 0 min 406 W/m 12,9 km/h (3 Bft) 97,83 %
08.06.2022 10:28 18,4 C 19,4 C 16,1 C 87 % 1007,9 hPa 0,0 l/m 2 min 0 min 390 W/m 12,9 km/h (3 Bft) 97,87 %
08.06.2022 10:30 18,5 C 19,4 C 16,1 C 87 % 1008,0 hPa 0,0 l/m 2 min 0 min 382 W/m 16,1 km/h (3 Bft) 95,74 %
08.06.2022 10:32 18,6 C 19,4 C 16,1 C 87 % 1007,9 hPa 0,0 l/m 2 min 0 min 423 W/m 12,9 km/h (3 Bft) 95,74 %
08.06.2022 10:34 18,7 C 19,4 C 16,7 C 87 % 1008,0 hPa 0,0 l/m 2 min 0 min 470 W/m 12,9 km/h (3 Bft) 97,87 %
08.06.2022 10:36 18,8 C 20,0 C 17,2 C 86 % 1007,9 hPa 0,0 l/m 2 min 0 min 521 W/m 16,1 km/h (3 Bft) 97,87 %
08.06.2022 10:38 18,9 C 20,0 C 17,2 C 86 % 1007,9 hPa 0,0 l/m 2 min 0 min 593 W/m 16,1 km/h (3 Bft) 97,83 %
08.06.2022 10:40 19,1 C 20,0 C 17,8 C 85 % 1007,9 hPa 0,0 l/m 2 min 0 min 613 W/m 12,9 km/h (3 Bft) 93,62 %
08.06.2022 10:42 19,2 C 20,6 C 18,3 C 85 % 1007,8 hPa 0,0 l/m 2 min 0 min 631 W/m 6,4 km/h (2 Bft) 97,87 %
08.06.2022 10:44 19,3 C 21,1 C 18,3 C 85 % 1007,8 hPa 0,0 l/m 2 min 0 min 584 W/m 12,9 km/h (3 Bft) 100,00 %
08.06.2022 10:46 19,5 C 21,1 C 18,3 C 84 % 1007,8 hPa 0,0 l/m 2 min 0 min 542 W/m 12,9 km/h (3 Bft) 100,00 %
08.06.2022 10:48 19,7 C 21,7 C 18,3 C 84 % 1007,8 hPa 0,0 l/m 2 min 0 min 629 W/m 12,9 km/h (3 Bft) 93,62 %
08.06.2022 10:50 19,8 C 21,7 C 18,3 C 83 % 1007,7 hPa 0,0 l/m 2 min 0 min 508 W/m 12,9 km/h (3 Bft) 97,83 %
08.06.2022 10:52 19,9 C 21,7 C 18,3 C 82 % 1007,7 hPa 0,0 l/m 2 min 0 min 451 W/m 12,9 km/h (3 Bft) 100,00 %
08.06.2022 10:54 19,9 C 21,7 C 18,3 C 82 % 1007,7 hPa 0,0 l/m 2 min 0 min 456 W/m 16,1 km/h (3 Bft) 100,00 %
08.06.2022 10:56 20,1 C 21,7 C 18,3 C 81 % 1007,7 hPa 0,0 l/m 2 min 0 min 504 W/m 9,7 km/h (2 Bft) 100,00 %
08.06.2022 10:58 20,2 C 21,7 C 17,8 C 81 % 1007,7 hPa 0,0 l/m 2 min 0 min 486 W/m 16,1 km/h (3 Bft) 97,87 %
08.06.2022 11:00 20,2 C 21,7 C 17,8 C 80 % 1007,7 hPa 0,0 l/m 2 min 0 min 466 W/m 22,5 km/h (4 Bft) 97,87 %
08.06.2022 11:02 20,3 C 21,1 C 17,8 C 80 % 1007,7 hPa 0,0 l/m 2 min 0 min 437 W/m 22,5 km/h (4 Bft) 97,83 %
08.06.2022 11:04 20,3 C 21,1 C 17,8 C 79 % 1007,7 hPa 0,0 l/m 2 min 0 min 405 W/m 12,9 km/h (3 Bft) 97,87 %
08.06.2022 11:06 20,4 C 21,1 C 17,8 C 79 % 1007,7 hPa 0,0 l/m 2 min 0 min 417 W/m 6,4 km/h (2 Bft) 97,87 %
08.06.2022 11:08 20,4 C 21,1 C 17,8 C 78 % 1007,7 hPa 0,0 l/m 2 min 0 min 506 W/m 6,4 km/h (2 Bft) 97,87 %
08.06.2022 11:10 20,5 C 21,7 C 17,8 C 79 % 1007,6 hPa 0,0 l/m 2 min 0 min 527 W/m 16,1 km/h (3 Bft) 95,74 %
08.06.2022 11:12 20,6 C 21,7 C 17,8 C 79 % 1007,6 hPa 0,0 l/m 2 min 0 min 422 W/m 12,9 km/h (3 Bft) 93,62 %
08.06.2022 11:14 20,6 C 21,7 C 17,8 C 78 % 1007,6 hPa 0,0 l/m 2 min 0 min 437 W/m 16,1 km/h (3 Bft) 97,83 %
08.06.2022 11:16 20,7 C 21,7 C 17,8 C 77 % 1007,6 hPa 0,0 l/m 0 min 0 min 393 W/m 9,7 km/h (2 Bft) 98,00 %
08.06.2022 11:18 20,7 C 21,7 C 17,8 C 77 % 1007,6 hPa 0,0 l/m 0 min 0 min 357 W/m 19,3 km/h (3 Bft) 97,87 %
08.06.2022 11:20 20,7 C 21,1 C 17,8 C 77 % 1007,6 hPa 0,0 l/m 2 min 0 min 411 W/m 19,3 km/h (3 Bft) 95,74 %
08.06.2022 11:22 20,8 C 21,7 C 17,8 C 76 % 1007,6 hPa 0,0 l/m 2 min 0 min 506 W/m 9,7 km/h (2 Bft) 95,74 %
08.06.2022 11:24 20,8 C 21,7 C 17,8 C 76 % 1007,6 hPa 0,0 l/m 2 min 0 min 421 W/m 6,4 km/h (2 Bft) 95,74 %
08.06.2022 11:26 20,8 C 21,7 C 17,8 C 76 % 1007,5 hPa 0,0 l/m 0 min 0 min 401 W/m 12,9 km/h (3 Bft) 93,48 %
08.06.2022 11:28 20,9 C 21,1 C 17,8 C 76 % 1007,4 hPa 0,0 l/m 0 min 0 min 382 W/m 16,1 km/h (3 Bft) 95,74 %
08.06.2022 11:30 20,9 C 21,1 C 17,8 C 76 % 1007,4 hPa 0,0 l/m 0 min 0 min 281 W/m 12,9 km/h (3 Bft) 95,74 %
08.06.2022 11:32 20,8 C 20,6 C 17,2 C 75 % 1007,4 hPa 0,0 l/m 0 min 0 min 256 W/m 6,4 km/h (2 Bft) 93,62 %
08.06.2022 11:34 20,8 C 20,6 C 17,2 C 75 % 1007,3 hPa 0,0 l/m 0 min 0 min 233 W/m 12,9 km/h (3 Bft) 95,74 %
08.06.2022 11:36 20,8 C 20,6 C 17,2 C 75 % 1007,3 hPa 0,0 l/m 0 min 0 min 218 W/m 16,1 km/h (3 Bft) 95,65 %
08.06.2022 11:38 20,8 C 20,6 C 17,2 C 75 % 1007,4 hPa 0,0 l/m 0 min 0 min 193 W/m 6,4 km/h (2 Bft) 95,74 %
08.06.2022 11:40 20,8 C 20,0 C 16,7 C 75 % 1007,4 hPa 0,0 l/m 0 min 0 min 156 W/m 6,4 km/h (2 Bft) 93,62 %
08.06.2022 11:42 20,8 C 20,0 C 16,7 C 76 % 1007,3 hPa 0,0 l/m 0 min 0 min 135 W/m 6,4 km/h (2 Bft) 93,62 %
08.06.2022 11:44 20,7 C 20,0 C 16,7 C 75 % 1007,3 hPa 0,0 l/m 0 min 0 min 122 W/m 12,9 km/h (3 Bft) 95,74 %
08.06.2022 11:46 20,7 C 20,0 C 16,7 C 75 % 1007,3 hPa 0,0 l/m 0 min 0 min 108 W/m 12,9 km/h (3 Bft) 95,74 %
08.06.2022 11:48 20,6 C 19,4 C 16,1 C 75 % 1007,3 hPa 0,0 l/m 0 min 2 min 86 W/m 12,9 km/h (3 Bft) 95,74 %
08.06.2022 11:50 20,5 C 19,4 C 15,6 C 75 % 1007,3 hPa 0,0 l/m 0 min 2 min 64 W/m 16,1 km/h (3 Bft) 93,48 %
08.06.2022 11:52 20,4 C 18,9 C 14,4 C 77 % 1007,3 hPa 0,0 l/m 0 min 2 min 54 W/m 6,4 km/h (2 Bft) 95,74 %
08.06.2022 11:54 20,3 C 18,9 C 13,9 C 79 % 1007,3 hPa 0,0 l/m 0 min 2 min 46 W/m 22,5 km/h (4 Bft) 93,62 %
08.06.2022 11:56 20,2 C 18,9 C 13,9 C 79 % 1007,3 hPa 0,0 l/m 0 min 2 min 34 W/m 32,2 km/h (5 Bft) 93,62 %
08.06.2022 11:58 20,0 C 18,3 C 13,3 C 79 % 1007,4 hPa 0,0 l/m 0 min 2 min 28 W/m 16,1 km/h (3 Bft) 97,87 %
08.06.2022 12:00 19,8 C 17,2 C 12,8 C 80 % 1007,4 hPa 0,6 l/m 0 min 2 min 25 W/m 19,3 km/h (3 Bft) 97,87 %
08.06.2022 12:02 19,7 C 16,7 C 12,8 C 81 % 1007,4 hPa 0,6 l/m 0 min 2 min 22 W/m 6,4 km/h (2 Bft) 97,83 %
08.06.2022 12:04 19,6 C 16,1 C 12,8 C 83 % 1007,5 hPa 0,6 l/m 0 min 2 min 25 W/m 9,7 km/h (2 Bft) 100,00 %
08.06.2022 12:07 19,2 C 15,6 C 12,2 C 84 % 1007,5 hPa 1,8 l/m 0 min 3 min 34 W/m 25,7 km/h (4 Bft) 100,00 %
08.06.2022 12:08 19,1 C 15,6 C 12,2 C 84 % 1007,5 hPa 0,2 l/m 0 min 1 min 31 W/m 9,7 km/h (2 Bft) 95,83 %
08.06.2022 12:10 18,9 C 15,6 C 12,2 C 85 % 1007,5 hPa 0,4 l/m 0 min 2 min 28 W/m 6,4 km/h (2 Bft) 100,00 %
08.06.2022 12:12 18,8 C 15,6 C 12,2 C 85 % 1007,6 hPa 0,2 l/m 0 min 2 min 35 W/m 12,9 km/h (3 Bft) 100,00 %
08.06.2022 12:14 18,6 C 15,6 C 12,2 C 86 % 1007,6 hPa 0,2 l/m 0 min 2 min 45 W/m 12,9 km/h (3 Bft) 100,00 %
08.06.2022 12:16 18,4 C 15,6 C 12,2 C 87 % 1007,6 hPa 0,2 l/m 0 min 2 min 59 W/m 6,4 km/h (2 Bft) 100,00 %
08.06.2022 12:18 18,3 C 15,6 C 12,2 C 87 % 1007,6 hPa 0,0 l/m 0 min 2 min 77 W/m 6,4 km/h (2 Bft) 100,00 %
08.06.2022 12:20 18,2 C 15,6 C 12,2 C 88 % 1007,7 hPa 0,0 l/m 0 min 2 min 94 W/m 6,4 km/h (2 Bft) 100,00 %
08.06.2022 12:22 18,1 C 15,6 C 12,2 C 88 % 1007,6 hPa 0,2 l/m 0 min 2 min 105 W/m 16,1 km/h (3 Bft) 100,00 %
08.06.2022 12:24 17,9 C 15,6 C 12,2 C 89 % 1007,7 hPa 0,0 l/m 0 min 2 min 115 W/m 16,1 km/h (3 Bft) 100,00 %
08.06.2022 12:26 17,8 C 15,6 C 12,2 C 89 % 1007,7 hPa 0,0 l/m 0 min 2 min 133 W/m 19,3 km/h (3 Bft) 100,00 %
08.06.2022 12:28 17,7 C 15,6 C 12,2 C 90 % 1007,6 hPa 0,0 l/m 0 min 2 min 151 W/m 16,1 km/h (3 Bft) 100,00 %
08.06.2022 12:30 17,6 C 15,6 C 12,2 C 90 % 1007,6 hPa 0,2 l/m 0 min 2 min 150 W/m 9,7 km/h (2 Bft) 95,74 %
08.06.2022 12:32 17,6 C 15,6 C 12,2 C 91 % 1007,6 hPa 0,0 l/m 0 min 2 min 134 W/m 12,9 km/h (3 Bft) 95,74 %
08.06.2022 12:34 17,6 C 16,1 C 12,2 C 91 % 1007,6 hPa 0,0 l/m 0 min 2 min 122 W/m 3,2 km/h (1 Bft) 97,87 %
08.06.2022 12:36 17,6 C 16,1 C 12,8 C 91 % 1007,6 hPa 0,0 l/m 0 min 2 min 123 W/m 6,4 km/h (2 Bft) 95,65 %
08.06.2022 12:38 17,5 C 16,1 C 12,8 C 91 % 1007,6 hPa 0,2 l/m 0 min 2 min 126 W/m 6,4 km/h (2 Bft) 97,87 %
08.06.2022 12:40 17,4 C 15,6 C 12,2 C 92 % 1007,6 hPa 0,0 l/m 0 min 2 min 125 W/m 9,7 km/h (2 Bft) 97,87 %
08.06.2022 12:42 17,4 C 15,6 C 12,2 C 92 % 1007,6 hPa 0,0 l/m 0 min 2 min 102 W/m 6,4 km/h (2 Bft) 97,87 %
08.06.2022 12:44 17,4 C 15,6 C 12,2 C 92 % 1007,6 hPa 0,2 l/m 0 min 2 min 83 W/m 3,2 km/h (1 Bft) 97,87 %
08.06.2022 12:46 17,4 C 15,6 C 12,2 C 92 % 1007,6 hPa 0,0 l/m 0 min 2 min 77 W/m 6,4 km/h (2 Bft) 97,87 %
08.06.2022 12:48 17,4 C 15,6 C 12,8 C 92 % 1007,6 hPa 0,2 l/m 0 min 2 min 72 W/m 6,4 km/h (2 Bft) 95,65 %
08.06.2022 12:50 17,4 C 15,6 C 12,8 C 93 % 1007,6 hPa 0,2 l/m 0 min 2 min 73 W/m 3,2 km/h (1 Bft) 97,87 %
08.06.2022 12:52 17,4 C 15,6 C 12,8 C 93 % 1007,6 hPa 0,0 l/m 0 min 2 min 74 W/m 6,4 km/h (2 Bft) 97,87 %
08.06.2022 12:54 17,3 C 15,6 C 12,8 C 93 % 1007,7 hPa 0,2 l/m 0 min 2 min 71 W/m 6,4 km/h (2 Bft) 97,87 %
08.06.2022 12:56 17,3 C 15,6 C 12,2 C 93 % 1007,7 hPa 0,2 l/m 0 min 2 min 94 W/m 9,7 km/h (2 Bft) 97,87 %
08.06.2022 12:58 17,3 C 15,6 C 12,2 C 93 % 1007,6 hPa 0,0 l/m 0 min 2 min 135 W/m 6,4 km/h (2 Bft) 97,87 %
08.06.2022 13:00 17,3 C 15,6 C 12,8 C 93 % 1007,5 hPa 0,0 l/m 0 min 2 min 140 W/m 3,2 km/h (1 Bft) 97,83 %
08.06.2022 13:02 17,3 C 15,6 C 12,2 C 93 % 1007,6 hPa 0,2 l/m 0 min 2 min 85 W/m 3,2 km/h (1 Bft) 97,87 %
08.06.2022 13:04 17,3 C 15,6 C 12,2 C 93 % 1007,6 hPa 0,2 l/m 0 min 2 min 67 W/m 3,2 km/h (1 Bft) 95,74 %
08.06.2022 13:06 17,3 C 15,6 C 12,8 C 94 % 1007,6 hPa 0,0 l/m 0 min 2 min 88 W/m 0,0 km/h (0 Bft) 93,62 %
08.06.2022 13:08 17,3 C 15,6 C 12,8 C 94 % 1007,6 hPa 0,2 l/m 0 min 2 min 95 W/m 3,2 km/h (1 Bft) 97,87 %
08.06.2022 13:10 17,2 C 15,6 C 12,2 C 94 % 1007,5 hPa 0,4 l/m 0 min 2 min 67 W/m 3,2 km/h (1 Bft) 95,74 %
08.06.2022 13:12 17,2 C 15,6 C 12,2 C 94 % 1007,6 hPa 0,0 l/m 0 min 2 min 67 W/m 6,4 km/h (2 Bft) 97,83 %
08.06.2022 13:14 17,1 C 15,6 C 12,2 C 94 % 1007,6 hPa 0,2 l/m 0 min 2 min 63 W/m 6,4 km/h (2 Bft) 97,87 %
08.06.2022 13:16 17,0 C 15,6 C 12,2 C 94 % 1007,6 hPa 0,2 l/m 0 min 2 min 71 W/m 6,4 km/h (2 Bft) 93,62 %
08.06.2022 13:18 16,9 C 15,0 C 12,2 C 94 % 1007,6 hPa 0,6 l/m 0 min 2 min 68 W/m 6,4 km/h (2 Bft) 100,00 %
08.06.2022 13:20 16,8 C 15,0 C 11,7 C 94 % 1007,5 hPa 0,2 l/m 0 min 2 min 66 W/m 12,9 km/h (3 Bft) 95,74 %
08.06.2022 13:22 16,7 C 15,0 C 11,7 C 94 % 1007,6 hPa 0,2 l/m 0 min 2 min 72 W/m 12,9 km/h (3 Bft) 97,87 %
08.06.2022 13:24 16,6 C 15,0 C 11,7 C 94 % 1007,5 hPa 0,0 l/m 0 min 2 min 100 W/m 6,4 km/h (2 Bft) 95,65 %
08.06.2022 13:26 16,6 C 15,0 C 11,7 C 94 % 1007,5 hPa 0,0 l/m 0 min 2 min 129 W/m 12,9 km/h (3 Bft) 97,87 %
08.06.2022 13:28 16,6 C 15,0 C 11,7 C 94 % 1007,6 hPa 0,0 l/m 0 min 2 min 137 W/m 6,4 km/h (2 Bft) 97,87 %
08.06.2022 13:30 16,6 C 15,0 C 11,7 C 94 % 1007,6 hPa 0,0 l/m 0 min 2 min 152 W/m 16,1 km/h (3 Bft) 97,87 %
08.06.2022 13:32 16,6 C 15,0 C 12,2 C 94 % 1007,6 hPa 0,0 l/m 0 min 2 min 168 W/m 12,9 km/h (3 Bft) 95,74 %
08.06.2022 13:34 16,6 C 15,0 C 12,2 C 94 % 1007,7 hPa 0,0 l/m 0 min 2 min 186 W/m 22,5 km/h (4 Bft) 93,62 %
08.06.2022 13:36 16,6 C 15,6 C 12,2 C 95 % 1007,7 hPa 0,0 l/m 0 min 2 min 180 W/m 12,9 km/h (3 Bft) 97,83 %
08.06.2022 13:38 16,6 C 15,6 C 12,2 C 95 % 1007,7 hPa 0,0 l/m 0 min 2 min 179 W/m 9,7 km/h (2 Bft) 97,87 %
08.06.2022 13:40 16,7 C 15,6 C 12,2 C 95 % 1007,7 hPa 0,0 l/m 0 min 2 min 180 W/m 6,4 km/h (2 Bft) 97,87 %
08.06.2022 13:42 16,7 C 15,6 C 12,2 C 95 % 1007,7 hPa 0,0 l/m 0 min 2 min 176 W/m 12,9 km/h (3 Bft) 97,87 %
08.06.2022 13:44 16,7 C 15,6 C 12,2 C 95 % 1007,6 hPa 0,2 l/m 0 min 2 min 184 W/m 19,3 km/h (3 Bft) 97,87 %
08.06.2022 13:46 16,7 C 15,6 C 12,2 C 95 % 1007,6 hPa 0,0 l/m 0 min 2 min 182 W/m 19,3 km/h (3 Bft) 97,87 %
08.06.2022 13:48 16,6 C 15,6 C 12,2 C 95 % 1007,6 hPa 0,0 l/m 0 min 2 min 175 W/m 25,7 km/h (4 Bft) 97,83 %
08.06.2022 13:50 16,5 C 15,6 C 11,7 C 94 % 1007,6 hPa 0,0 l/m 0 min 2 min 180 W/m 19,3 km/h (3 Bft) 95,74 %
08.06.2022 13:52 16,5 C 15,6 C 11,7 C 94 % 1007,6 hPa 0,0 l/m 0 min 2 min 178 W/m 19,3 km/h (3 Bft) 95,74 %
08.06.2022 13:54 16,4 C 15,6 C 11,7 C 94 % 1007,6 hPa 0,0 l/m 0 min 2 min 179 W/m 12,9 km/h (3 Bft) 97,87 %
08.06.2022 13:56 16,4 C 15,6 C 12,2 C 94 % 1007,6 hPa 0,0 l/m 0 min 2 min 180 W/m 9,7 km/h (2 Bft) 100,00 %
08.06.2022 13:58 16,4 C 15,6 C 12,2 C 94 % 1007,5 hPa 0,2 l/m 0 min 2 min 175 W/m 12,9 km/h (3 Bft) 100,00 %
08.06.2022 14:00 16,5 C 15,6 C 11,7 C 95 % 1007,5 hPa 0,0 l/m 0 min 2 min 164 W/m 6,4 km/h (2 Bft) 100,00 %
08.06.2022 14:02 16,4 C 15,6 C 11,7 C 94 % 1007,6 hPa 0,0 l/m 0 min 2 min 150 W/m 16,1 km/h (3 Bft) 97,87 %
08.06.2022 14:04 16,5 C 15,6 C 12,2 C 94 % 1007,6 hPa 0,0 l/m 0 min 2 min 141 W/m 6,4 km/h (2 Bft) 100,00 %
08.06.2022 14:06 16,5 C 15,6 C 12,2 C 95 % 1007,5 hPa 0,0 l/m 0 min 2 min 135 W/m 22,5 km/h (4 Bft) 100,00 %
08.06.2022 14:08 16,4 C 15,0 C 12,2 C 94 % 1007,5 hPa 0,0 l/m 0 min 2 min 131 W/m 12,9 km/h (3 Bft) 97,87 %
08.06.2022 14:10 16,4 C 15,6 C 12,2 C 95 % 1007,5 hPa 0,0 l/m 0 min 2 min 132 W/m 6,4 km/h (2 Bft) 97,87 %
08.06.2022 14:12 16,4 C 15,6 C 11,7 C 95 % 1007,5 hPa 0,0 l/m 0 min 2 min 135 W/m 12,9 km/h (3 Bft) 97,83 %
08.06.2022 14:14 16,4 C 15,6 C 11,7 C 95 % 1007,4 hPa 0,0 l/m 0 min 2 min 139 W/m 6,4 km/h (2 Bft) 97,87 %
08.06.2022 14:16 16,4 C 15,6 C 12,2 C 95 % 1007,4 hPa 0,0 l/m 0 min 2 min 142 W/m 6,4 km/h (2 Bft) 95,74 %
08.06.2022 14:18 16,4 C 15,6 C 12,2 C 95 % 1007,4 hPa 0,2 l/m 0 min 2 min 147 W/m 3,2 km/h (1 Bft) 97,87 %
08.06.2022 14:20 16,5 C 15,6 C 12,2 C 95 % 1007,3 hPa 0,0 l/m 0 min 2 min 151 W/m 3,2 km/h (1 Bft) 97,87 %
08.06.2022 14:22 16,5 C 15,6 C 12,2 C 95 % 1007,4 hPa 0,0 l/m 0 min 2 min 151 W/m 3,2 km/h (1 Bft) 95,74 %
08.06.2022 14:24 16,5 C 15,6 C 12,2 C 95 % 1007,4 hPa 0,0 l/m 0 min 2 min 157 W/m 6,4 km/h (2 Bft) 97,83 %
08.06.2022 14:26 16,6 C 15,6 C 12,2 C 95 % 1007,3 hPa 0,0 l/m 0 min 2 min 166 W/m 3,2 km/h (1 Bft) 93,62 %
08.06.2022 14:28 16,6 C 15,6 C 12,2 C 95 % 1007,3 hPa 0,0 l/m 0 min 2 min 172 W/m 6,4 km/h (2 Bft) 97,87 %
08.06.2022 14:30 16,6 C 15,6 C 12,2 C 95 % 1007,3 hPa 0,0 l/m 0 min 2 min 174 W/m 3,2 km/h (1 Bft) 97,87 %
08.06.2022 14:32 16,6 C 16,1 C 12,2 C 95 % 1007,3 hPa 0,0 l/m 0 min 2 min 174 W/m 3,2 km/h (1 Bft) 97,87 %
08.06.2022 14:34 16,6 C 16,1 C 12,2 C 95 % 1007,3 hPa 0,0 l/m 0 min 2 min 176 W/m 3,2 km/h (1 Bft) 97,87 %
08.06.2022 14:36 16,7 C 16,1 C 12,2 C 95 % 1007,3 hPa 0,0 l/m 0 min 2 min 179 W/m 16,1 km/h (3 Bft) 97,83 %
08.06.2022 14:38 16,6 C 16,1 C 12,2 C 95 % 1007,2 hPa 0,0 l/m 0 min 2 min 180 W/m 9,7 km/h (2 Bft) 97,87 %
08.06.2022 14:40 16,6 C 16,1 C 12,2 C 95 % 1007,3 hPa 0,0 l/m 0 min 2 min 183 W/m 6,4 km/h (2 Bft) 97,87 %
08.06.2022 14:42 16,6 C 16,1 C 12,2 C 95 % 1007,2 hPa 0,2 l/m 0 min 2 min 190 W/m 12,9 km/h (3 Bft) 95,74 %
08.06.2022 14:44 16,7 C 16,1 C 12,2 C 95 % 1007,2 hPa 0,0 l/m 0 min 2 min 197 W/m 6,4 km/h (2 Bft) 97,87 %
08.06.2022 14:46 16,7 C 16,1 C 12,2 C 95 % 1007,2 hPa 0,0 l/m 0 min 2 min 206 W/m 9,7 km/h (2 Bft) 97,87 %
08.06.2022 14:48 16,7 C 16,1 C 12,8 C 95 % 1007,2 hPa 0,0 l/m 0 min 2 min 214 W/m 6,4 km/h (2 Bft) 97,83 %
08.06.2022 14:50 16,7 C 16,1 C 12,8 C 95 % 1007,1 hPa 0,0 l/m 0 min 2 min 215 W/m 9,7 km/h (2 Bft) 97,87 %
08.06.2022 14:52 16,7 C 16,1 C 12,8 C 96 % 1007,1 hPa 0,0 l/m 0 min 2 min 203 W/m 9,7 km/h (2 Bft) 97,87 %
08.06.2022 14:54 16,7 C 16,1 C 12,8 C 96 % 1007,1 hPa 0,0 l/m 0 min 2 min 192 W/m 6,4 km/h (2 Bft) 97,87 %
08.06.2022 14:56 16,8 C 16,1 C 12,8 C 96 % 1007,1 hPa 0,0 l/m 0 min 2 min 189 W/m 3,2 km/h (1 Bft) 97,87 %
08.06.2022 14:58 16,8 C 16,1 C 12,8 C 96 % 1007,1 hPa 0,0 l/m 0 min 2 min 183 W/m 3,2 km/h (1 Bft) 100,00 %
08.06.2022 15:00 16,8 C 16,1 C 12,8 C 96 % 1007,1 hPa 0,0 l/m 0 min 2 min 191 W/m 3,2 km/h (1 Bft) 100,00 %
08.06.2022 15:02 16,8 C 16,1 C 12,8 C 96 % 1007,1 hPa 0,0 l/m 0 min 2 min 165 W/m 3,2 km/h (1 Bft) 100,00 %
08.06.2022 15:04 16,8 C 16,1 C 12,8 C 96 % 1007,1 hPa 0,0 l/m 0 min 2 min 149 W/m 3,2 km/h (1 Bft) 100,00 %
08.06.2022 15:06 16,9 C 16,1 C 12,8 C 96 % 1007,1 hPa 0,2 l/m 0 min 2 min 147 W/m 3,2 km/h (1 Bft) 97,87 %
08.06.2022 15:08 16,9 C 16,1 C 12,8 C 96 % 1007,1 hPa 0,0 l/m 0 min 2 min 129 W/m 3,2 km/h (1 Bft) 97,87 %
08.06.2022 15:10 16,9 C 16,1 C 12,8 C 96 % 1007,1 hPa 0,0 l/m 0 min 2 min 101 W/m 6,4 km/h (2 Bft) 100,00 %
08.06.2022 15:12 16,9 C 16,1 C 12,8 C 96 % 1007,1 hPa 0,0 l/m 0 min 2 min 95 W/m 3,2 km/h (1 Bft) 100,00 %
08.06.2022 15:14 16,9 C 16,1 C 12,8 C 96 % 1007,0 hPa 0,2 l/m 0 min 2 min 102 W/m 3,2 km/h (1 Bft) 97,87 %
08.06.2022 15:16 16,9 C 16,1 C 12,8 C 96 % 1007,0 hPa 0,0 l/m 0 min 2 min 95 W/m 6,4 km/h (2 Bft) 100,00 %
08.06.2022 15:18 16,9 C 16,1 C 12,8 C 96 % 1007,0 hPa 0,0 l/m 0 min 2 min 101 W/m 3,2 km/h (1 Bft) 95,74 %
08.06.2022 15:20 16,8 C 16,1 C 12,2 C 96 % 1007,0 hPa 0,2 l/m 0 min 2 min 125 W/m 6,4 km/h (2 Bft) 95,74 %
08.06.2022 15:22 16,9 C 16,1 C 12,8 C 96 % 1006,9 hPa 0,0 l/m 0 min 2 min 142 W/m 6,4 km/h (2 Bft) 95,74 %
08.06.2022 15:24 16,9 C 16,1 C 12,8 C 96 % 1006,9 hPa 0,0 l/m 0 min 2 min 146 W/m 6,4 km/h (2 Bft) 93,48 %
08.06.2022 15:26 16,8 C 16,1 C 12,2 C 96 % 1006,8 hPa 0,2 l/m 0 min 2 min 123 W/m 6,4 km/h (2 Bft) 95,74 %
08.06.2022 15:28 16,8 C 16,1 C 12,8 C 96 % 1006,8 hPa 0,0 l/m 0 min 2 min 94 W/m 9,7 km/h (2 Bft) 93,62 %
08.06.2022 15:30 16,8 C 15,6 C 12,8 C 96 % 1006,9 hPa 0,2 l/m 0 min 2 min 58 W/m 9,7 km/h (2 Bft) 95,74 %
08.06.2022 15:32 16,8 C 15,6 C 12,2 C 96 % 1007,0 hPa 0,4 l/m 0 min 2 min 43 W/m 16,1 km/h (3 Bft) 93,62 %
08.06.2022 15:34 16,7 C 15,6 C 12,2 C 96 % 1007,1 hPa 0,4 l/m 0 min 2 min 68 W/m 16,1 km/h (3 Bft) 95,74 %
08.06.2022 15:36 16,7 C 15,0 C 12,2 C 96 % 1007,1 hPa 0,2 l/m 0 min 2 min 69 W/m 9,7 km/h (2 Bft) 93,48 %
08.06.2022 15:38 16,6 C 15,0 C 12,2 C 96 % 1007,2 hPa 0,6 l/m 0 min 2 min 72 W/m 16,1 km/h (3 Bft) 95,74 %
08.06.2022 15:40 16,4 C 14,4 C 11,7 C 95 % 1007,1 hPa 0,4 l/m 0 min 2 min 82 W/m 12,9 km/h (3 Bft) 95,74 %
08.06.2022 15:42 16,3 C 14,4 C 11,7 C 95 % 1007,1 hPa 0,4 l/m 0 min 2 min 89 W/m 9,7 km/h (2 Bft) 93,62 %
08.06.2022 15:44 16,1 C 14,4 C 11,7 C 95 % 1007,1 hPa 0,2 l/m 0 min 2 min 91 W/m 19,3 km/h (3 Bft) 93,62 %
08.06.2022 15:46 16,0 C 14,4 C 11,1 C 95 % 1007,2 hPa 0,4 l/m 0 min 2 min 100 W/m 22,5 km/h (4 Bft) 95,74 %
08.06.2022 15:48 15,8 C 13,9 C 11,1 C 95 % 1007,1 hPa 0,2 l/m 0 min 2 min 102 W/m 16,1 km/h (3 Bft) 95,65 %
08.06.2022 15:50 15,7 C 13,9 C 11,1 C 95 % 1007,1 hPa 0,2 l/m 0 min 2 min 97 W/m 3,2 km/h (1 Bft) 97,87 %
08.06.2022 15:52 15,7 C 14,4 C 11,7 C 95 % 1007,1 hPa 0,0 l/m 0 min 2 min 96 W/m 3,2 km/h (1 Bft) 97,87 %
08.06.2022 15:54 15,7 C 14,4 C 11,7 C 95 % 1007,1 hPa 0,0 l/m 0 min 2 min 104 W/m 6,4 km/h (2 Bft) 97,87 %
08.06.2022 15:56 15,7 C 14,4 C 11,7 C 95 % 1007,1 hPa 0,2 l/m 0 min 2 min 109 W/m 3,2 km/h (1 Bft) 97,87 %
08.06.2022 15:58 15,7 C 14,4 C 11,7 C 95 % 1007,0 hPa 0,0 l/m 0 min 2 min 114 W/m 6,4 km/h (2 Bft) 97,87 %
08.06.2022 16:00 15,6 C 14,4 C 11,1 C 95 % 1007,1 hPa 0,2 l/m 0 min 2 min 126 W/m 9,7 km/h (2 Bft) 95,65 %
08.06.2022 16:02 15,6 C 13,9 C 11,1 C 95 % 1007,0 hPa 0,0 l/m 0 min 2 min 135 W/m 6,4 km/h (2 Bft) 97,87 %
08.06.2022 16:04 15,6 C 14,4 C 11,7 C 96 % 1007,0 hPa 0,0 l/m 0 min 2 min 135 W/m 3,2 km/h (1 Bft) 97,87 %
08.06.2022 16:06 15,6 C 14,4 C 11,7 C 96 % 1006,9 hPa 0,2 l/m 0 min 2 min 133 W/m 6,4 km/h (2 Bft) 100,00 %
08.06.2022 16:08 15,5 C 14,4 C 11,7 C 96 % 1007,0 hPa 0,0 l/m 0 min 2 min 127 W/m 6,4 km/h (2 Bft) 100,00 %
08.06.2022 16:10 15,6 C 14,4 C 11,7 C 96 % 1007,0 hPa 0,2 l/m 0 min 2 min 127 W/m 6,4 km/h (2 Bft) 100,00 %
08.06.2022 16:12 15,6 C 14,4 C 11,7 C 96 % 1006,9 hPa 0,0 l/m 0 min 2 min 140 W/m 6,4 km/h (2 Bft) 100,00 %
08.06.2022 16:14 15,6 C 14,4 C 11,7 C 96 % 1006,9 hPa 0,0 l/m 0 min 2 min 150 W/m 6,4 km/h (2 Bft) 97,87 %
08.06.2022 16:16 15,6 C 14,4 C 11,7 C 96 % 1006,9 hPa 0,2 l/m 0 min 2 min 150 W/m 3,2 km/h (1 Bft) 100,00 %
08.06.2022 16:18 15,6 C 14,4 C 11,7 C 96 % 1006,8 hPa 0,0 l/m 0 min 2 min 148 W/m 3,2 km/h (1 Bft) 100,00 %
08.06.2022 16:20 15,7 C 14,4 C 11,7 C 96 % 1006,8 hPa 0,0 l/m 0 min 2 min 148 W/m 16,1 km/h (3 Bft) 100,00 %
08.06.2022 16:22 15,7 C 14,4 C 11,7 C 96 % 1006,8 hPa 0,0 l/m 0 min 2 min 152 W/m 6,4 km/h (2 Bft) 97,83 %
08.06.2022 16:24 15,7 C 14,4 C 11,7 C 96 % 1006,7 hPa 0,2 l/m 0 min 2 min 161 W/m 6,4 km/h (2 Bft) 100,00 %
08.06.2022 16:26 15,7 C 14,4 C 11,7 C 96 % 1006,7 hPa 0,0 l/m 0 min 2 min 169 W/m 12,9 km/h (3 Bft) 97,87 %
08.06.2022 16:28 15,7 C 15,0 C 12,2 C 96 % 1006,7 hPa 0,0 l/m 0 min 2 min 173 W/m 3,2 km/h (1 Bft) 100,00 %
08.06.2022 16:30 15,7 C 14,4 C 11,7 C 96 % 1006,7 hPa 0,0 l/m 0 min 2 min 174 W/m 12,9 km/h (3 Bft) 100,00 %
08.06.2022 16:32 15,7 C 15,0 C 11,7 C 96 % 1006,7 hPa 0,0 l/m 0 min 2 min 169 W/m 6,4 km/h (2 Bft) 100,00 %
08.06.2022 16:34 15,7 C 15,0 C 11,7 C 96 % 1006,7 hPa 0,0 l/m 0 min 2 min 162 W/m 16,1 km/h (3 Bft) 100,00 %
08.06.2022 16:36 15,8 C 15,0 C 12,2 C 96 % 1006,7 hPa 0,0 l/m 0 min 2 min 153 W/m 3,2 km/h (1 Bft) 100,00 %
08.06.2022 16:38 15,8 C 15,0 C 12,2 C 96 % 1006,7 hPa 0,0 l/m 0 min 2 min 143 W/m 6,4 km/h (2 Bft) 100,00 %
08.06.2022 16:40 15,8 C 15,0 C 12,2 C 97 % 1006,7 hPa 0,0 l/m 0 min 2 min 121 W/m 9,7 km/h (2 Bft) 100,00 %
08.06.2022 16:42 15,8 C 15,0 C 12,2 C 97 % 1006,6 hPa 0,2 l/m 0 min 2 min 113 W/m 9,7 km/h (2 Bft) 100,00 %
08.06.2022 16:44 15,9 C 15,0 C 12,2 C 97 % 1006,7 hPa 0,0 l/m 0 min 2 min 97 W/m 9,7 km/h (2 Bft) 97,87 %
08.06.2022 16:46 15,9 C 15,0 C 12,2 C 97 % 1006,6 hPa 0,0 l/m 0 min 2 min 101 W/m 6,4 km/h (2 Bft) 100,00 %
08.06.2022 16:48 15,9 C 15,0 C 12,2 C 97 % 1006,6 hPa 0,0 l/m 0 min 2 min 97 W/m 6,4 km/h (2 Bft) 95,74 %
08.06.2022 16:50 15,9 C 15,0 C 11,7 C 97 % 1006,6 hPa 0,0 l/m 0 min 2 min 113 W/m 9,7 km/h (2 Bft) 97,87 %
08.06.2022 16:52 15,9 C 15,0 C 11,7 C 97 % 1006,6 hPa 0,0 l/m 0 min 2 min 116 W/m 12,9 km/h (3 Bft) 97,87 %
08.06.2022 16:54 15,8 C 15,0 C 11,7 C 97 % 1006,6 hPa 0,2 l/m 0 min 2 min 124 W/m 19,3 km/h (3 Bft) 100,00 %
08.06.2022 16:56 15,8 C 15,0 C 11,7 C 97 % 1006,5 hPa 0,0 l/m 0 min 2 min 148 W/m 22,5 km/h (4 Bft) 97,87 %
08.06.2022 16:58 15,8 C 15,0 C 11,7 C 97 % 1006,6 hPa 0,0 l/m 0 min 2 min 161 W/m 19,3 km/h (3 Bft) 97,87 %
08.06.2022 17:00 15,8 C 15,0 C 11,7 C 97 % 1006,6 hPa 0,0 l/m 0 min 2 min 167 W/m 9,7 km/h (2 Bft) 100,00 %
08.06.2022 17:02 15,8 C 15,0 C 11,7 C 97 % 1006,5 hPa 0,0 l/m 0 min 2 min 168 W/m 16,1 km/h (3 Bft) 96,23 %
08.06.2022 17:04 15,8 C 15,0 C 11,7 C 97 % 1006,6 hPa 0,0 l/m 0 min 2 min 169 W/m 19,3 km/h (3 Bft) 97,87 %
08.06.2022 17:06 15,8 C 15,0 C 12,2 C 97 % 1006,5 hPa 0,2 l/m 0 min 2 min 171 W/m 12,9 km/h (3 Bft) 97,87 %
08.06.2022 17:08 15,8 C 15,6 C 12,2 C 97 % 1006,5 hPa 0,0 l/m 0 min 2 min 177 W/m 12,9 km/h (3 Bft) 95,74 %
08.06.2022 17:10 15,8 C 15,6 C 11,7 C 97 % 1006,5 hPa 0,0 l/m 0 min 2 min 181 W/m 19,3 km/h (3 Bft) 95,65 %
08.06.2022 17:12 15,8 C 15,6 C 12,2 C 97 % 1006,5 hPa 0,0 l/m 0 min 2 min 183 W/m 12,9 km/h (3 Bft) 97,87 %
08.06.2022 17:14 15,8 C 15,6 C 12,2 C 97 % 1006,5 hPa 0,0 l/m 0 min 2 min 190 W/m 9,7 km/h (2 Bft) 97,87 %
08.06.2022 17:16 15,9 C 15,6 C 12,2 C 97 % 1006,5 hPa 0,0 l/m 0 min 2 min 199 W/m 9,7 km/h (2 Bft) 95,74 %
08.06.2022 17:18 15,9 C 15,6 C 12,2 C 97 % 1006,5 hPa 0,0 l/m 0 min 2 min 201 W/m 12,9 km/h (3 Bft) 95,74 %
08.06.2022 17:20 15,9 C 15,6 C 12,2 C 97 % 1006,5 hPa 0,0 l/m 0 min 2 min 209 W/m 19,3 km/h (3 Bft) 95,74 %
08.06.2022 17:22 15,9 C 15,6 C 12,2 C 97 % 1006,5 hPa 0,0 l/m 0 min 2 min 215 W/m 25,7 km/h (4 Bft) 95,65 %
08.06.2022 17:24 15,9 C 15,0 C 12,2 C 97 % 1006,5 hPa 0,0 l/m 0 min 2 min 209 W/m 35,4 km/h (5 Bft) 95,74 %
08.06.2022 17:26 15,9 C 15,0 C 11,7 C 97 % 1006,5 hPa 0,2 l/m 0 min 2 min 209 W/m 22,5 km/h (4 Bft) 95,74 %
08.06.2022 17:28 15,9 C 15,6 C 12,2 C 97 % 1006,5 hPa 0,0 l/m 0 min 2 min 215 W/m 22,5 km/h (4 Bft) 97,87 %
08.06.2022 17:30 15,9 C 15,6 C 12,2 C 97 % 1006,5 hPa 0,0 l/m 0 min 2 min 210 W/m 19,3 km/h (3 Bft) 95,74 %
08.06.2022 17:32 15,9 C 15,6 C 12,2 C 97 % 1006,5 hPa 0,0 l/m 0 min 2 min 211 W/m 38,6 km/h (5 Bft) 95,74 %
08.06.2022 17:34 15,9 C 15,0 C 12,2 C 97 % 1006,5 hPa 0,0 l/m 0 min 2 min 177 W/m 38,6 km/h (5 Bft) 95,65 %
08.06.2022 17:36 15,9 C 15,0 C 11,7 C 97 % 1006,5 hPa 0,0 l/m 0 min 2 min 146 W/m 29,0 km/h (5 Bft) 95,74 %
08.06.2022 17:38 15,8 C 15,0 C 11,7 C 97 % 1006,4 hPa 0,2 l/m 0 min 2 min 167 W/m 6,4 km/h (2 Bft) 95,12 %
08.06.2022 17:40 15,8 C 15,0 C 12,2 C 97 % 1006,4 hPa 0,0 l/m 0 min 2 min 159 W/m 16,1 km/h (3 Bft) 95,74 %
08.06.2022 17:42 15,9 C 15,0 C 12,2 C 97 % 1006,4 hPa 0,2 l/m 0 min 2 min 147 W/m 19,3 km/h (3 Bft) 91,49 %
08.06.2022 17:44 15,8 C 15,0 C 11,7 C 97 % 1006,4 hPa 0,0 l/m 0 min 2 min 144 W/m 29,0 km/h (5 Bft) 94,34 %
08.06.2022 17:46 15,8 C 14,4 C 11,7 C 97 % 1006,4 hPa 0,2 l/m 0 min 2 min 112 W/m 22,5 km/h (4 Bft) 95,35 %
08.06.2022 17:48 15,7 C 14,4 C 11,7 C 97 % 1006,4 hPa 0,0 l/m 0 min 2 min 68 W/m 19,3 km/h (3 Bft) 97,87 %
08.06.2022 17:50 15,7 C 14,4 C 11,7 C 97 % 1006,5 hPa 0,2 l/m 0 min 2 min 42 W/m 16,1 km/h (3 Bft) 100,00 %
08.06.2022 17:52 15,7 C 14,4 C 11,7 C 97 % 1006,5 hPa 0,2 l/m 0 min 2 min 84 W/m 22,5 km/h (4 Bft) 97,87 %
08.06.2022 17:54 15,7 C 14,4 C 11,7 C 97 % 1006,5 hPa 0,2 l/m 0 min 2 min 106 W/m 19,3 km/h (3 Bft) 100,00 %
08.06.2022 17:56 15,6 C 14,4 C 11,7 C 97 % 1006,4 hPa 0,0 l/m 0 min 2 min 83 W/m 12,9 km/h (3 Bft) 100,00 %
08.06.2022 17:58 15,6 C 14,4 C 11,7 C 97 % 1006,5 hPa 0,2 l/m 0 min 2 min 85 W/m 9,7 km/h (2 Bft) 100,00 %
08.06.2022 18:00 15,6 C 14,4 C 11,7 C 97 % 1006,5 hPa 0,0 l/m 0 min 2 min 116 W/m 12,9 km/h (3 Bft) 100,00 %
08.06.2022 18:02 15,6 C 14,4 C 11,7 C 97 % 1006,4 hPa 0,0 l/m 0 min 2 min 121 W/m 16,1 km/h (3 Bft) 100,00 %
08.06.2022 18:04 15,5 C 14,4 C 11,7 C 97 % 1006,5 hPa 0,0 l/m 0 min 2 min 129 W/m 19,3 km/h (3 Bft) 100,00 %
08.06.2022 18:07 15,5 C 14,4 C 11,7 C 97 % 1006,5 hPa 0,0 l/m 0 min 3 min 156 W/m 16,1 km/h (3 Bft) 100,00 %
08.06.2022 18:08 15,5 C 14,4 C 11,7 C 97 % 1006,5 hPa 0,0 l/m 0 min 1 min 153 W/m 6,4 km/h (2 Bft) 95,83 %
08.06.2022 18:10 15,6 C 14,4 C 11,7 C 97 % 1006,5 hPa 0,2 l/m 0 min 2 min 148 W/m 16,1 km/h (3 Bft) 97,83 %
08.06.2022 18:12 15,6 C 14,4 C 11,7 C 97 % 1006,5 hPa 0,0 l/m 0 min 2 min 137 W/m 12,9 km/h (3 Bft) 95,74 %
08.06.2022 18:14 15,5 C 14,4 C 11,7 C 97 % 1006,5 hPa 0,0 l/m 0 min 2 min 129 W/m 12,9 km/h (3 Bft) 97,87 %
08.06.2022 18:16 15,6 C 14,4 C 11,7 C 97 % 1006,5 hPa 0,0 l/m 0 min 2 min 122 W/m 12,9 km/h (3 Bft) 95,74 %
08.06.2022 18:18 15,5 C 14,4 C 11,7 C 97 % 1006,5 hPa 0,0 l/m 0 min 2 min 121 W/m 9,7 km/h (2 Bft) 97,87 %
08.06.2022 18:20 15,5 C 14,4 C 11,7 C 97 % 1006,5 hPa 0,0 l/m 0 min 0 min 116 W/m 12,9 km/h (3 Bft) 97,87 %
08.06.2022 18:22 15,5 C 14,4 C 11,7 C 97 % 1006,5 hPa 0,0 l/m 0 min 0 min 109 W/m 12,9 km/h (3 Bft) 97,83 %
08.06.2022 18:24 15,4 C 14,4 C 11,7 C 97 % 1006,5 hPa 0,0 l/m 0 min 2 min 114 W/m 19,3 km/h (3 Bft) 97,87 %
08.06.2022 18:26 15,4 C 14,4 C 11,7 C 97 % 1006,5 hPa 0,0 l/m 0 min 2 min 124 W/m 12,9 km/h (3 Bft) 97,87 %
08.06.2022 18:28 15,4 C 14,4 C 11,7 C 97 % 1006,6 hPa 0,0 l/m 0 min 2 min 125 W/m 12,9 km/h (3 Bft) 97,87 %
08.06.2022 18:30 15,4 C 14,4 C 11,7 C 97 % 1006,5 hPa 0,0 l/m 0 min 0 min 112 W/m 6,4 km/h (2 Bft) 97,87 %
08.06.2022 18:32 15,4 C 14,4 C 11,7 C 97 % 1006,6 hPa 0,0 l/m 0 min 2 min 98 W/m 12,9 km/h (3 Bft) 97,87 %
08.06.2022 18:34 15,4 C 14,4 C 11,7 C 97 % 1006,6 hPa 0,0 l/m 0 min 2 min 100 W/m 6,4 km/h (2 Bft) 95,65 %
08.06.2022 18:36 15,5 C 14,4 C 11,7 C 97 % 1006,6 hPa 0,0 l/m 0 min 2 min 89 W/m 9,7 km/h (2 Bft) 95,74 %
08.06.2022 18:38 15,5 C 14,4 C 11,7 C 97 % 1006,6 hPa 0,0 l/m 0 min 2 min 67 W/m 6,4 km/h (2 Bft) 97,87 %
08.06.2022 18:40 15,4 C 14,4 C 11,7 C 97 % 1006,7 hPa 0,0 l/m 0 min 2 min 75 W/m 16,1 km/h (3 Bft) 97,87 %
08.06.2022 18:42 15,4 C 14,4 C 11,1 C 97 % 1006,7 hPa 0,0 l/m 0 min 2 min 87 W/m 19,3 km/h (3 Bft) 97,87 %
08.06.2022 18:44 15,3 C 14,4 C 11,1 C 97 % 1006,7 hPa 0,0 l/m 0 min 2 min 83 W/m 16,1 km/h (3 Bft) 97,87 %
08.06.2022 18:46 15,3 C 14,4 C 11,1 C 97 % 1006,7 hPa 0,0 l/m 0 min 2 min 81 W/m 9,7 km/h (2 Bft) 97,83 %
08.06.2022 18:48 15,2 C 14,4 C 11,1 C 97 % 1006,7 hPa 0,0 l/m 0 min 2 min 77 W/m 16,1 km/h (3 Bft) 95,74 %
08.06.2022 18:50 15,1 C 14,4 C 11,1 C 97 % 1006,8 hPa 0,0 l/m 0 min 2 min 73 W/m 12,9 km/h (3 Bft) 97,87 %
08.06.2022 18:52 15,1 C 14,4 C 11,1 C 97 % 1006,8 hPa 0,0 l/m 0 min 2 min 66 W/m 19,3 km/h (3 Bft) 95,74 %
08.06.2022 18:54 14,9 C 13,9 C 11,1 C 97 % 1006,9 hPa 0,0 l/m 0 min 2 min 64 W/m 16,1 km/h (3 Bft) 100,00 %
08.06.2022 18:56 14,9 C 13,9 C 11,1 C 97 % 1006,8 hPa 0,0 l/m 0 min 2 min 63 W/m 12,9 km/h (3 Bft) 100,00 %
08.06.2022 18:58 14,9 C 13,9 C 10,6 C 97 % 1006,9 hPa 0,0 l/m 0 min 2 min 64 W/m 9,7 km/h (2 Bft) 100,00 %
08.06.2022 19:00 14,9 C 13,9 C 10,6 C 97 % 1006,9 hPa 0,0 l/m 0 min 2 min 67 W/m 19,3 km/h (3 Bft) 97,87 %
08.06.2022 19:02 14,8 C 13,9 C 10,6 C 97 % 1006,9 hPa 0,0 l/m 0 min 2 min 67 W/m 12,9 km/h (3 Bft) 97,87 %
08.06.2022 19:04 14,8 C 13,9 C 10,6 C 96 % 1006,9 hPa 0,0 l/m 0 min 2 min 69 W/m 6,4 km/h (2 Bft) 93,62 %
08.06.2022 19:06 14,8 C 13,9 C 10,6 C 96 % 1006,9 hPa 0,2 l/m 0 min 2 min 74 W/m 6,4 km/h (2 Bft) 100,00 %
08.06.2022 19:08 14,8 C 13,9 C 10,6 C 96 % 1006,9 hPa 0,0 l/m 0 min 2 min 82 W/m 9,7 km/h (2 Bft) 100,00 %
08.06.2022 19:10 14,8 C 13,9 C 10,6 C 96 % 1006,9 hPa 0,0 l/m 0 min 2 min 86 W/m 22,5 km/h (4 Bft) 100,00 %
08.06.2022 19:12 14,8 C 13,9 C 11,1 C 96 % 1006,9 hPa 0,0 l/m 0 min 2 min 88 W/m 12,9 km/h (3 Bft) 95,74 %
08.06.2022 19:14 14,8 C 13,9 C 11,1 C 97 % 1006,9 hPa 0,0 l/m 0 min 2 min 89 W/m 16,1 km/h (3 Bft) 95,74 %
08.06.2022 19:16 14,8 C 14,4 C 11,1 C 97 % 1006,9 hPa 0,0 l/m 0 min 2 min 87 W/m 12,9 km/h (3 Bft) 95,74 %
08.06.2022 19:18 14,8 C 14,4 C 11,1 C 97 % 1007,0 hPa 0,0 l/m 0 min 0 min 84 W/m 6,4 km/h (2 Bft) 97,87 %
08.06.2022 19:20 14,9 C 14,4 C 11,1 C 97 % 1007,0 hPa 0,0 l/m 0 min 2 min 80 W/m 6,4 km/h (2 Bft) 97,87 %
08.06.2022 19:22 14,9 C 14,4 C 11,1 C 97 % 1007,0 hPa 0,0 l/m 0 min 2 min 76 W/m 16,1 km/h (3 Bft) 97,83 %
08.06.2022 19:24 14,9 C 14,4 C 11,1 C 97 % 1007,0 hPa 0,0 l/m 0 min 2 min 70 W/m 3,2 km/h (1 Bft) 97,87 %
08.06.2022 19:26 14,9 C 14,4 C 11,1 C 97 % 1007,0 hPa 0,0 l/m 0 min 2 min 65 W/m 6,4 km/h (2 Bft) 97,87 %
08.06.2022 19:28 14,9 C 14,4 C 11,1 C 97 % 1007,0 hPa 0,0 l/m 0 min 2 min 62 W/m 6,4 km/h (2 Bft) 97,87 %
08.06.2022 19:30 15,0 C 13,9 C 11,1 C 97 % 1007,0 hPa 0,0 l/m 0 min 2 min 59 W/m 12,9 km/h (3 Bft) 97,87 %
08.06.2022 19:32 15,0 C 13,9 C 11,1 C 97 % 1007,0 hPa 0,0 l/m 0 min 2 min 57 W/m 12,9 km/h (3 Bft) 97,87 %
08.06.2022 19:34 15,0 C 13,9 C 11,1 C 97 % 1007,0 hPa 0,0 l/m 0 min 2 min 55 W/m 9,7 km/h (2 Bft) 95,65 %
08.06.2022 19:36 15,0 C 13,9 C 11,1 C 97 % 1007,1 hPa 0,2 l/m 0 min 2 min 54 W/m 6,4 km/h (2 Bft) 95,74 %
08.06.2022 19:38 15,0 C 13,9 C 11,1 C 97 % 1007,1 hPa 0,0 l/m 0 min 2 min 51 W/m 6,4 km/h (2 Bft) 97,87 %
08.06.2022 19:40 14,9 C 13,9 C 11,1 C 97 % 1007,1 hPa 0,0 l/m 0 min 2 min 48 W/m 12,9 km/h (3 Bft) 97,87 %
08.06.2022 19:42 15,0 C 13,9 C 11,1 C 97 % 1007,1 hPa 0,0 l/m 0 min 2 min 48 W/m 9,7 km/h (2 Bft) 100,00 %
08.06.2022 19:44 15,0 C 13,9 C 11,1 C 97 % 1007,1 hPa 0,2 l/m 0 min 2 min 53 W/m 9,7 km/h (2 Bft) 97,87 %
08.06.2022 19:46 14,9 C 13,9 C 11,1 C 97 % 1007,1 hPa 0,0 l/m 0 min 2 min 58 W/m 6,4 km/h (2 Bft) 100,00 %
08.06.2022 19:48 15,0 C 13,9 C 11,1 C 97 % 1007,1 hPa 0,0 l/m 0 min 2 min 60 W/m 6,4 km/h (2 Bft) 100,00 %
08.06.2022 19:50 15,0 C 13,9 C 11,1 C 97 % 1007,1 hPa 0,0 l/m 0 min 2 min 60 W/m 12,9 km/h (3 Bft) 100,00 %
08.06.2022 19:52 14,9 C 13,9 C 11,1 C 97 % 1007,1 hPa 0,0 l/m 0 min 2 min 62 W/m 6,4 km/h (2 Bft) 97,87 %
08.06.2022 19:54 14,9 C 13,9 C 11,1 C 97 % 1007,1 hPa 0,2 l/m 0 min 2 min 63 W/m 19,3 km/h (3 Bft) 97,87 %
08.06.2022 19:56 14,9 C 13,9 C 11,1 C 97 % 1007,2 hPa 0,0 l/m 0 min 2 min 64 W/m 6,4 km/h (2 Bft) 97,87 %
08.06.2022 19:58 14,9 C 13,9 C 11,1 C 97 % 1007,2 hPa 0,0 l/m 0 min 2 min 62 W/m 16,1 km/h (3 Bft) 97,83 %
08.06.2022 20:00 14,9 C 13,9 C 11,1 C 97 % 1007,2 hPa 0,0 l/m 0 min 2 min 60 W/m 6,4 km/h (2 Bft) 97,87 %
08.06.2022 20:02 15,0 C 13,9 C 11,1 C 97 % 1007,3 hPa 0,0 l/m 0 min 2 min 61 W/m 3,2 km/h (1 Bft) 97,87 %
08.06.2022 20:04 15,0 C 13,9 C 11,1 C 97 % 1007,3 hPa 0,0 l/m 0 min 0 min 64 W/m 12,9 km/h (3 Bft) 97,87 %
08.06.2022 20:06 15,1 C 13,9 C 11,1 C 97 % 1007,3 hPa 0,0 l/m 0 min 2 min 63 W/m 9,7 km/h (2 Bft) 97,87 %
08.06.2022 20:08 15,1 C 13,9 C 11,1 C 97 % 1007,3 hPa 0,0 l/m 0 min 2 min 61 W/m 6,4 km/h (2 Bft) 97,87 %
08.06.2022 20:10 15,1 C 13,9 C 11,1 C 97 % 1007,3 hPa 0,0 l/m 0 min 2 min 58 W/m 6,4 km/h (2 Bft) 97,83 %
08.06.2022 20:12 15,1 C 13,9 C 11,1 C 97 % 1007,4 hPa 0,0 l/m 0 min 2 min 54 W/m 3,2 km/h (1 Bft) 97,87 %
08.06.2022 20:14 15,1 C 13,9 C 11,1 C 97 % 1007,3 hPa 0,0 l/m 0 min 2 min 53 W/m 6,4 km/h (2 Bft) 97,87 %
08.06.2022 20:16 15,1 C 13,9 C 11,1 C 97 % 1007,3 hPa 0,0 l/m 0 min 0 min 53 W/m 6,4 km/h (2 Bft) 97,87 %
08.06.2022 20:18 15,1 C 13,9 C 11,1 C 97 % 1007,3 hPa 0,0 l/m 0 min 2 min 53 W/m 6,4 km/h (2 Bft) 97,87 %
08.06.2022 20:20 15,1 C 13,9 C 11,1 C 97 % 1007,3 hPa 0,0 l/m 0 min 2 min 54 W/m 3,2 km/h (1 Bft) 97,87 %
08.06.2022 20:22 15,1 C 14,4 C 11,1 C 97 % 1007,3 hPa 0,0 l/m 0 min 2 min 54 W/m 3,2 km/h (1 Bft) 95,65 %
08.06.2022 20:24 15,1 C 14,4 C 11,1 C 97 % 1007,4 hPa 0,0 l/m 0 min 2 min 53 W/m 3,2 km/h (1 Bft) 97,87 %
08.06.2022 20:26 15,1 C 14,4 C 11,1 C 97 % 1007,4 hPa 0,0 l/m 0 min 2 min 52 W/m 6,4 km/h (2 Bft) 95,74 %
08.06.2022 20:28 15,1 C 14,4 C 11,1 C 97 % 1007,5 hPa 0,0 l/m 0 min 2 min 50 W/m 3,2 km/h (1 Bft) 97,87 %
08.06.2022 20:30 15,1 C 14,4 C 11,7 C 97 % 1007,4 hPa 0,0 l/m 0 min 0 min 48 W/m 3,2 km/h (1 Bft) 97,87 %
08.06.2022 20:32 15,1 C 14,4 C 11,7 C 97 % 1007,4 hPa 0,0 l/m 0 min 2 min 45 W/m 3,2 km/h (1 Bft) 100,00 %
08.06.2022 20:34 15,2 C 14,4 C 11,7 C 97 % 1007,4 hPa 0,0 l/m 0 min 2 min 42 W/m 0,0 km/h (0 Bft) 93,62 %
08.06.2022 20:36 15,2 C 14,4 C 11,7 C 97 % 1007,4 hPa 0,0 l/m 0 min 0 min 37 W/m 0,0 km/h (0 Bft) 96,55 %
08.06.2022 20:38 15,2 C 14,4 C 11,7 C 97 % 1007,4 hPa 0,0 l/m 0 min 0 min 34 W/m 6,4 km/h (2 Bft) 97,14 %
08.06.2022 20:40 15,2 C 14,4 C 11,7 C 97 % 1007,3 hPa 0,0 l/m 0 min 2 min 33 W/m 6,4 km/h (2 Bft) 95,74 %
08.06.2022 20:42 15,2 C 14,4 C 11,7 C 97 % 1007,4 hPa 0,0 l/m 0 min 0 min 32 W/m 9,7 km/h (2 Bft) 97,87 %
08.06.2022 20:44 15,2 C 14,4 C 11,7 C 97 % 1007,3 hPa 0,0 l/m 0 min 2 min 28 W/m 6,4 km/h (2 Bft) 100,00 %
08.06.2022 20:46 15,1 C 14,4 C 11,7 C 97 % 1007,4 hPa 0,0 l/m 0 min 0 min 26 W/m 3,2 km/h (1 Bft) 100,00 %
08.06.2022 20:48 15,1 C 14,4 C 11,7 C 97 % 1007,5 hPa 0,0 l/m 0 min 0 min 25 W/m 6,4 km/h (2 Bft) 100,00 %
08.06.2022 20:50 15,1 C 14,4 C 11,7 C 97 % 1007,5 hPa 0,0 l/m 0 min 0 min 24 W/m 3,2 km/h (1 Bft) 100,00 %
08.06.2022 20:52 15,1 C 14,4 C 11,7 C 97 % 1007,5 hPa 0,0 l/m 0 min 2 min 22 W/m 3,2 km/h (1 Bft) 100,00 %
08.06.2022 20:54 15,2 C 14,4 C 11,7 C 98 % 1007,6 hPa 0,0 l/m 0 min 2 min 21 W/m 6,4 km/h (2 Bft) 100,00 %
08.06.2022 20:56 15,2 C 14,4 C 11,7 C 98 % 1007,6 hPa 0,0 l/m 0 min 2 min 19 W/m 3,2 km/h (1 Bft) 95,74 %
08.06.2022 20:58 15,2 C 14,4 C 11,7 C 98 % 1007,6 hPa 0,0 l/m 0 min 2 min 18 W/m 6,4 km/h (2 Bft) 97,87 %
08.06.2022 21:00 15,2 C 14,4 C 11,7 C 98 % 1007,6 hPa 0,0 l/m 0 min 2 min 16 W/m 6,4 km/h (2 Bft) 100,00 %
08.06.2022 21:02 15,2 C 14,4 C 11,7 C 98 % 1007,6 hPa 0,0 l/m 0 min 2 min 16 W/m 3,2 km/h (1 Bft) 97,87 %
08.06.2022 21:04 15,2 C 14,4 C 11,7 C 98 % 1007,6 hPa 0,0 l/m 0 min 2 min 14 W/m 6,4 km/h (2 Bft) 97,87 %
08.06.2022 21:06 15,2 C 14,4 C 11,7 C 98 % 1007,6 hPa 0,0 l/m 0 min 0 min 14 W/m 3,2 km/h (1 Bft) 96,61 %
08.06.2022 21:08 15,2 C 14,4 C 11,7 C 98 % 1007,6 hPa 0,0 l/m 0 min 0 min 12 W/m 3,2 km/h (1 Bft) 94,29 %
08.06.2022 21:10 15,2 C 14,4 C 11,7 C 98 % 1007,6 hPa 0,0 l/m 0 min 0 min 12 W/m 0,0 km/h (0 Bft) 95,74 %
08.06.2022 21:12 15,2 C 14,4 C 11,7 C 98 % 1007,6 hPa 0,0 l/m 0 min 0 min 12 W/m 0,0 km/h (0 Bft) 94,44 %
08.06.2022 21:14 15,2 C 14,4 C 11,7 C 98 % 1007,6 hPa 0,0 l/m 0 min 0 min 11 W/m 6,4 km/h (2 Bft) 95,74 %
08.06.2022 21:16 15,2 C 14,4 C 11,1 C 98 % 1007,6 hPa 0,0 l/m 0 min 0 min 11 W/m 3,2 km/h (1 Bft) 95,74 %
08.06.2022 21:18 15,2 C 14,4 C 11,7 C 98 % 1007,7 hPa 0,0 l/m 0 min 0 min 11 W/m 6,4 km/h (2 Bft) 95,74 %
08.06.2022 21:20 15,2 C 14,4 C 11,7 C 98 % 1007,7 hPa 0,0 l/m 0 min 0 min 9 W/m 3,2 km/h (1 Bft) 95,74 %
08.06.2022 21:22 15,2 C 14,4 C 11,7 C 98 % 1007,7 hPa 0,0 l/m 0 min 0 min 9 W/m 6,4 km/h (2 Bft) 95,65 %
08.06.2022 21:24 15,2 C 14,4 C 11,1 C 98 % 1007,7 hPa 0,0 l/m 0 min 0 min 7 W/m 6,4 km/h (2 Bft) 95,74 %
08.06.2022 21:26 15,1 C 13,9 C 11,1 C 98 % 1007,7 hPa 0,0 l/m 0 min 0 min 7 W/m 6,4 km/h (2 Bft) 95,74 %
08.06.2022 21:28 15,1 C 13,9 C 11,7 C 98 % 1007,7 hPa 0,0 l/m 0 min 0 min 7 W/m 3,2 km/h (1 Bft) 95,74 %
08.06.2022 21:30 15,1 C 13,9 C 11,7 C 98 % 1007,7 hPa 0,0 l/m 0 min 0 min 5 W/m 6,4 km/h (2 Bft) 93,62 %
08.06.2022 21:32 15,1 C 13,9 C 11,1 C 98 % 1007,7 hPa 0,0 l/m 0 min 0 min 5 W/m 3,2 km/h (1 Bft) 95,74 %
08.06.2022 21:34 15,1 C 13,9 C 11,1 C 98 % 1007,8 hPa 0,0 l/m 0 min 0 min 2 W/m 3,2 km/h (1 Bft) 93,48 %
08.06.2022 21:36 15,1 C 13,9 C 11,1 C 98 % 1007,9 hPa 0,0 l/m 0 min 0 min 0 W/m 3,2 km/h (1 Bft) 93,62 %
08.06.2022 21:38 15,1 C 13,9 C 11,1 C 98 % 1007,8 hPa 0,0 l/m 0 min 0 min 0 W/m 12,9 km/h (3 Bft) 97,87 %
08.06.2022 21:40 15,0 C 13,9 C 11,1 C 98 % 1007,9 hPa 0,0 l/m 0 min 0 min 0 W/m 0,0 km/h (0 Bft) 97,87 %
08.06.2022 21:42 15,0 C 13,9 C 11,1 C 98 % 1007,9 hPa 0,0 l/m 0 min 0 min 0 W/m 6,4 km/h (2 Bft) 97,87 %
08.06.2022 21:44 15,0 C 13,9 C 11,1 C 98 % 1007,9 hPa 0,0 l/m 0 min 0 min 0 W/m 12,9 km/h (3 Bft) 97,87 %
08.06.2022 21:46 15,0 C 13,9 C 11,1 C 98 % 1007,9 hPa 0,0 l/m 0 min 0 min 0 W/m 6,4 km/h (2 Bft) 95,65 %
08.06.2022 21:48 15,0 C 13,9 C 11,1 C 98 % 1008,0 hPa 0,0 l/m 0 min 0 min 0 W/m 6,4 km/h (2 Bft) 100,00 %
08.06.2022 21:50 15,0 C 13,9 C 11,1 C 98 % 1008,0 hPa 0,0 l/m 0 min 0 min 0 W/m 9,7 km/h (2 Bft) 100,00 %
08.06.2022 21:52 14,9 C 13,9 C 11,1 C 98 % 1008,0 hPa 0,0 l/m 0 min 0 min 0 W/m 6,4 km/h (2 Bft) 97,87 %
08.06.2022 21:54 14,9 C 13,9 C 11,1 C 98 % 1008,0 hPa 0,0 l/m 0 min 0 min 0 W/m 6,4 km/h (2 Bft) 95,74 %
08.06.2022 21:56 14,9 C 13,9 C 11,1 C 98 % 1008,0 hPa 0,0 l/m 0 min 0 min 0 W/m 12,9 km/h (3 Bft) 100,00 %
08.06.2022 21:58 14,9 C 13,9 C 11,1 C 98 % 1008,1 hPa 0,0 l/m 0 min 0 min 0 W/m 6,4 km/h (2 Bft) 100,00 %
08.06.2022 22:00 14,9 C 13,9 C 11,1 C 98 % 1008,1 hPa 0,0 l/m 0 min 0 min 0 W/m 9,7 km/h (2 Bft) 100,00 %
08.06.2022 22:02 14,9 C 13,9 C 11,1 C 98 % 1008,1 hPa 0,0 l/m 0 min 0 min 0 W/m 12,9 km/h (3 Bft) 100,00 %
08.06.2022 22:04 14,9 C 13,9 C 11,1 C 98 % 1008,1 hPa 0,0 l/m 0 min 0 min 0 W/m 12,9 km/h (3 Bft) 97,87 %
08.06.2022 22:06 14,9 C 13,9 C 11,1 C 98 % 1008,1 hPa 0,0 l/m 0 min 0 min 0 W/m 12,9 km/h (3 Bft) 100,00 %
08.06.2022 22:08 14,9 C 13,9 C 11,1 C 98 % 1008,1 hPa 0,0 l/m 0 min 0 min 0 W/m 3,2 km/h (1 Bft) 97,87 %
08.06.2022 22:10 14,9 C 13,9 C 11,1 C 98 % 1008,1 hPa 0,0 l/m 0 min 0 min 0 W/m 9,7 km/h (2 Bft) 100,00 %
08.06.2022 22:12 14,9 C 13,9 C 11,1 C 98 % 1008,2 hPa 0,0 l/m 0 min 0 min 0 W/m 6,4 km/h (2 Bft) 100,00 %
08.06.2022 22:14 14,9 C 13,9 C 11,1 C 98 % 1008,2 hPa 0,0 l/m 0 min 0 min 0 W/m 6,4 km/h (2 Bft) 100,00 %
08.06.2022 22:16 14,9 C 13,9 C 11,1 C 98 % 1008,1 hPa 0,0 l/m 0 min 0 min 0 W/m 3,2 km/h (1 Bft) 100,00 %
08.06.2022 22:18 14,8 C 13,9 C 11,1 C 98 % 1008,2 hPa 0,0 l/m 0 min 0 min 0 W/m 3,2 km/h (1 Bft) 100,00 %
08.06.2022 22:20 14,8 C 13,9 C 11,1 C 98 % 1008,2 hPa 0,0 l/m 0 min 0 min 0 W/m 3,2 km/h (1 Bft) 100,00 %
08.06.2022 22:22 14,8 C 13,9 C 11,1 C 98 % 1008,2 hPa 0,0 l/m 0 min 0 min 0 W/m 0,0 km/h (0 Bft) 100,00 %
08.06.2022 22:24 14,8 C 13,9 C 11,1 C 98 % 1008,2 hPa 0,0 l/m 0 min 0 min 0 W/m 3,2 km/h (1 Bft) 97,87 %
08.06.2022 22:26 14,8 C 13,9 C 11,1 C 98 % 1008,2 hPa 0,0 l/m 0 min 0 min 0 W/m 6,4 km/h (2 Bft) 100,00 %
08.06.2022 22:28 14,8 C 13,9 C 11,1 C 98 % 1008,2 hPa 0,0 l/m 0 min 0 min 0 W/m 3,2 km/h (1 Bft) 100,00 %
08.06.2022 22:30 14,8 C 13,9 C 11,1 C 98 % 1008,2 hPa 0,0 l/m 0 min 0 min 0 W/m 3,2 km/h (1 Bft) 97,87 %
08.06.2022 22:32 14,8 C 13,9 C 11,1 C 98 % 1008,3 hPa 0,0 l/m 0 min 0 min 0 W/m 3,2 km/h (1 Bft) 97,83 %
08.06.2022 22:34 14,8 C 13,9 C 11,1 C 98 % 1008,2 hPa 0,0 l/m 0 min 0 min 0 W/m 3,2 km/h (1 Bft) 100,00 %
08.06.2022 22:36 14,8 C 13,9 C 11,1 C 98 % 1008,3 hPa 0,0 l/m 0 min 0 min 0 W/m 3,2 km/h (1 Bft) 100,00 %
08.06.2022 22:38 14,8 C 13,9 C 11,1 C 98 % 1008,3 hPa 0,0 l/m 0 min 0 min 0 W/m 6,4 km/h (2 Bft) 100,00 %
08.06.2022 22:40 14,8 C 13,9 C 11,1 C 98 % 1008,3 hPa 0,0 l/m 0 min 0 min 0 W/m 3,2 km/h (1 Bft) 97,87 %
08.06.2022 22:42 14,8 C 13,9 C 11,1 C 98 % 1008,3 hPa 0,0 l/m 0 min 0 min 0 W/m 12,9 km/h (3 Bft) 100,00 %
08.06.2022 22:44 14,7 C 13,9 C 11,1 C 98 % 1008,3 hPa 0,0 l/m 0 min 0 min 0 W/m 3,2 km/h (1 Bft) 97,87 %
08.06.2022 22:46 14,7 C 13,9 C 11,1 C 98 % 1008,3 hPa 0,0 l/m 0 min 0 min 0 W/m 6,4 km/h (2 Bft) 97,83 %
08.06.2022 22:48 14,7 C 13,9 C 11,1 C 98 % 1008,3 hPa 0,0 l/m 0 min 0 min 0 W/m 6,4 km/h (2 Bft) 97,87 %
08.06.2022 22:50 14,7 C 13,9 C 11,1 C 98 % 1008,3 hPa 0,0 l/m 0 min 0 min 0 W/m 3,2 km/h (1 Bft) 95,74 %
08.06.2022 22:52 14,7 C 13,3 C 11,1 C 98 % 1008,3 hPa 0,0 l/m 0 min 0 min 0 W/m 6,4 km/h (2 Bft) 97,87 %
08.06.2022 22:54 14,6 C 13,3 C 11,1 C 98 % 1008,3 hPa 0,0 l/m 0 min 0 min 0 W/m 12,9 km/h (3 Bft) 97,87 %
08.06.2022 22:56 14,6 C 13,3 C 11,1 C 98 % 1008,3 hPa 0,0 l/m 0 min 0 min 0 W/m 6,4 km/h (2 Bft) 97,87 %
08.06.2022 22:58 14,6 C 13,3 C 11,1 C 98 % 1008,3 hPa 0,0 l/m 0 min 0 min 0 W/m 6,4 km/h (2 Bft) 97,83 %
08.06.2022 23:00 14,5 C 13,3 C 11,1 C 98 % 1008,3 hPa 0,0 l/m 0 min 0 min 0 W/m 3,2 km/h (1 Bft) 93,62 %
08.06.2022 23:02 14,5 C 13,3 C 11,1 C 98 % 1008,3 hPa 0,0 l/m 0 min 0 min 0 W/m 3,2 km/h (1 Bft) 95,74 %
08.06.2022 23:04 14,5 C 13,3 C 11,1 C 98 % 1008,3 hPa 0,0 l/m 0 min 0 min 0 W/m 9,7 km/h (2 Bft) 95,74 %
08.06.2022 23:06 14,4 C 13,3 C 10,6 C 98 % 1008,3 hPa 0,0 l/m 0 min 0 min 0 W/m 3,2 km/h (1 Bft) 95,74 %
08.06.2022 23:08 14,4 C 13,3 C 10,6 C 98 % 1008,3 hPa 0,0 l/m 0 min 0 min 0 W/m 3,2 km/h (1 Bft) 95,74 %
08.06.2022 23:10 14,4 C 13,3 C 10,6 C 98 % 1008,3 hPa 0,0 l/m 0 min 0 min 0 W/m 3,2 km/h (1 Bft) 95,65 %
08.06.2022 23:12 14,4 C 13,3 C 11,1 C 98 % 1008,3 hPa 0,0 l/m 0 min 0 min 0 W/m 3,2 km/h (1 Bft) 95,74 %
08.06.2022 23:14 14,3 C 13,3 C 10,6 C 98 % 1008,3 hPa 0,0 l/m 0 min 0 min 0 W/m 6,4 km/h (2 Bft) 95,74 %
08.06.2022 23:16 14,3 C 13,3 C 10,6 C 98 % 1008,3 hPa 0,0 l/m 0 min 0 min 0 W/m 6,4 km/h (2 Bft) 93,62 %
08.06.2022 23:18 14,3 C 13,3 C 10,6 C 98 % 1008,3 hPa 0,0 l/m 0 min 0 min 0 W/m 9,7 km/h (2 Bft) 95,74 %
08.06.2022 23:20 14,3 C 13,3 C 10,6 C 98 % 1008,4 hPa 0,0 l/m 0 min 0 min 0 W/m 3,2 km/h (1 Bft) 95,74 %
08.06.2022 23:22 14,3 C 13,3 C 10,6 C 98 % 1008,4 hPa 0,0 l/m 0 min 0 min 0 W/m 3,2 km/h (1 Bft) 95,65 %
08.06.2022 23:24 14,3 C 13,3 C 10,6 C 98 % 1008,4 hPa 0,0 l/m 0 min 0 min 0 W/m 3,2 km/h (1 Bft) 95,74 %
08.06.2022 23:26 14,3 C 13,3 C 10,6 C 98 % 1008,4 hPa 0,0 l/m 0 min 0 min 0 W/m 3,2 km/h (1 Bft) 95,74 %
08.06.2022 23:28 14,3 C 13,3 C 10,6 C 98 % 1008,4 hPa 0,0 l/m 0 min 0 min 0 W/m 6,4 km/h (2 Bft) 95,74 %
08.06.2022 23:30 14,3 C 13,3 C 10,6 C 98 % 1008,5 hPa 0,0 l/m 0 min 0 min 0 W/m 6,4 km/h (2 Bft) 95,92 %
08.06.2022 23:32 14,3 C 13,3 C 10,6 C 98 % 1008,5 hPa 0,0 l/m 0 min 0 min 0 W/m 9,7 km/h (2 Bft) 100,00 %
08.06.2022 23:34 14,3 C 13,3 C 10,6 C 98 % 1008,5 hPa 0,0 l/m 0 min 0 min 0 W/m 9,7 km/h (2 Bft) 100,00 %
08.06.2022 23:36 14,3 C 13,3 C 10,6 C 98 % 1008,5 hPa 0,0 l/m 0 min 0 min 0 W/m 12,9 km/h (3 Bft) 100,00 %
08.06.2022 23:38 14,3 C 13,3 C 10,6 C 98 % 1008,5 hPa 0,0 l/m 0 min 0 min 0 W/m 12,9 km/h (3 Bft) 97,87 %
08.06.2022 23:40 14,3 C 13,3 C 10,6 C 98 % 1008,4 hPa 0,0 l/m 0 min 0 min 0 W/m 12,9 km/h (3 Bft) 100,00 %
08.06.2022 23:42 14,3 C 13,3 C 10,6 C 98 % 1008,5 hPa 0,0 l/m 0 min 0 min 0 W/m 12,9 km/h (3 Bft) 100,00 %
08.06.2022 23:44 14,3 C 13,3 C 10,6 C 98 % 1008,4 hPa 0,0 l/m 0 min 0 min 0 W/m 3,2 km/h (1 Bft) 100,00 %
08.06.2022 23:46 14,3 C 13,3 C 11,1 C 98 % 1008,4 hPa 0,0 l/m 0 min 0 min 0 W/m 0,0 km/h (0 Bft) 100,00 %
08.06.2022 23:48 14,3 C 13,3 C 11,1 C 98 % 1008,4 hPa 0,0 l/m 0 min 0 min 0 W/m 3,2 km/h (1 Bft) 100,00 %
08.06.2022 23:50 14,3 C 13,3 C 11,1 C 98 % 1008,4 hPa 0,0 l/m 0 min 0 min 0 W/m 3,2 km/h (1 Bft) 97,87 %
08.06.2022 23:52 14,3 C 13,3 C 11,1 C 98 % 1008,4 hPa 0,0 l/m 0 min 0 min 0 W/m 3,2 km/h (1 Bft) 100,00 %
08.06.2022 23:54 14,3 C 13,9 C 11,1 C 98 % 1008,5 hPa 0,0 l/m 0 min 0 min 0 W/m 3,2 km/h (1 Bft) 97,87 %
08.06.2022 23:56 14,3 C 13,9 C 11,1 C 98 % 1008,4 hPa 0,2 l/m 0 min 0 min 0 W/m 3,2 km/h (1 Bft) 100,00 %
08.06.2022 23:58 14,3 C 13,9 C 11,1 C 98 % 1008,5 hPa 0,0 l/m 0 min 0 min 0 W/m 0,0 km/h (0 Bft) 97,87 %
_ Min-Zeit 04:24 03:48 03:50 11:32 17:38 - - - - 00:42 00:02
Minimum _ 13,3 C 12,2 C 9,4 C 75 % 1006,4 hPa - - - - 0,0 km/h (0 Bft) 90,91 %
_ Max-Zeit 11:28 10:48 10:42 06:30 00:00 12:07 07:14 12:07 10:42 17:32 00:38
Maximum _ 20,9 C 21,7 C 18,3 C 98 % 1012,3 hPa 1,8 l/m 2 min 3 min 631 W/m 38,6 km/h
SW (5 Bft)
100,00 %
Durchschnitt _ 15,8 C 15,0 C 11,9 C 95 % 1008,5 hPa #18,6 l/m #1:12 h #8:52 h 139 W/m 7,9 km/h (2 Bft) 97,58 %
© 2022 W. Hausmann